<?xml version="1.0" encoding="UTF-8" standalone="no" ?>
<gpx xmlns="http://www.topografix.com/GPX/1/1" xmlns:xsi="http://www.w3.org/2001/XMLSchema-instance" xsi:schemaLocation="http://www.topografix.com/GPX/1/1 http://www.topografix.com/GPX/1/1/gpx.xsd" version="1.1" creator="VisuGPX - https://www.visugpx.com">
  <metadata>
    <name>Clermont-Ferrand - Massat - Pau par François</name>
    <desc><![CDATA[Trajet effectué par François sur la "Diagonale du vide" en aout 2020]]></desc>
  </metadata>
  <trk>
    <name><![CDATA[route118]]></name>
    <trkseg>
      <trkpt lat="42.84749" lon="1.60575">
        <ele>491.7</ele>
        <time>2020-08-31T06:03:36Z</time>
      </trkpt>
      <trkpt lat="42.84722" lon="1.60452">
        <ele>482.6</ele>
        <time>2020-08-31T06:04:16Z</time>
      </trkpt>
      <trkpt lat="42.84768" lon="1.60339">
        <ele>477.8</ele>
        <time>2020-08-31T06:04:36Z</time>
      </trkpt>
      <trkpt lat="42.8468" lon="1.60285">
        <ele>475.8</ele>
        <time>2020-08-31T06:05:06Z</time>
      </trkpt>
      <trkpt lat="42.84591" lon="1.60253">
        <ele>475.1</ele>
        <time>2020-08-31T06:05:41Z</time>
      </trkpt>
      <trkpt lat="42.84542" lon="1.60136">
        <ele>477.1</ele>
        <time>2020-08-31T06:06:37Z</time>
      </trkpt>
      <trkpt lat="42.84609" lon="1.60049">
        <ele>478.6</ele>
        <time>2020-08-31T06:08:04Z</time>
      </trkpt>
      <trkpt lat="42.84718" lon="1.59991">
        <ele>478.6</ele>
        <time>2020-08-31T06:09:21Z</time>
      </trkpt>
      <trkpt lat="42.84827" lon="1.59973">
        <ele>478.2</ele>
        <time>2020-08-31T06:09:41Z</time>
      </trkpt>
      <trkpt lat="42.84922" lon="1.59959">
        <ele>475.7</ele>
        <time>2020-08-31T06:10:01Z</time>
      </trkpt>
      <trkpt lat="42.85015" lon="1.59931">
        <ele>475</ele>
        <time>2020-08-31T06:10:21Z</time>
      </trkpt>
      <trkpt lat="42.85043" lon="1.59812">
        <ele>474.5</ele>
        <time>2020-08-31T06:10:51Z</time>
      </trkpt>
      <trkpt lat="42.85085" lon="1.5969">
        <ele>474.6</ele>
        <time>2020-08-31T06:11:31Z</time>
      </trkpt>
      <trkpt lat="42.85122" lon="1.59579">
        <ele>475.6</ele>
        <time>2020-08-31T06:12:06Z</time>
      </trkpt>
      <trkpt lat="42.85166" lon="1.59459">
        <ele>477.5</ele>
        <time>2020-08-31T06:12:46Z</time>
      </trkpt>
      <trkpt lat="42.85207" lon="1.59349">
        <ele>480.2</ele>
        <time>2020-08-31T06:13:35Z</time>
      </trkpt>
      <trkpt lat="42.85247" lon="1.59236">
        <ele>483.1</ele>
        <time>2020-08-31T06:14:22Z</time>
      </trkpt>
      <trkpt lat="42.85324" lon="1.59143">
        <ele>487.2</ele>
        <time>2020-08-31T06:14:57Z</time>
      </trkpt>
      <trkpt lat="42.85315" lon="1.59005">
        <ele>487.8</ele>
        <time>2020-08-31T06:15:27Z</time>
      </trkpt>
      <trkpt lat="42.85364" lon="1.58891">
        <ele>488.5</ele>
        <time>2020-08-31T06:16:02Z</time>
      </trkpt>
      <trkpt lat="42.85406" lon="1.58768">
        <ele>489.4</ele>
        <time>2020-08-31T06:16:47Z</time>
      </trkpt>
      <trkpt lat="42.85453" lon="1.58639">
        <ele>490.5</ele>
        <time>2020-08-31T06:17:17Z</time>
      </trkpt>
      <trkpt lat="42.85519" lon="1.58532">
        <ele>490.6</ele>
        <time>2020-08-31T06:17:47Z</time>
      </trkpt>
      <trkpt lat="42.85592" lon="1.58438">
        <ele>490.8</ele>
        <time>2020-08-31T06:18:17Z</time>
      </trkpt>
      <trkpt lat="42.85665" lon="1.58366">
        <ele>491.1</ele>
        <time>2020-08-31T06:18:57Z</time>
      </trkpt>
      <trkpt lat="42.85754" lon="1.58314">
        <ele>492.7</ele>
        <time>2020-08-31T06:20:02Z</time>
      </trkpt>
      <trkpt lat="42.85803" lon="1.582">
        <ele>495.1</ele>
        <time>2020-08-31T06:21:02Z</time>
      </trkpt>
      <trkpt lat="42.85851" lon="1.58086">
        <ele>498.1</ele>
        <time>2020-08-31T06:22:05Z</time>
      </trkpt>
      <trkpt lat="42.85866" lon="1.57958">
        <ele>501.1</ele>
        <time>2020-08-31T06:23:05Z</time>
      </trkpt>
      <trkpt lat="42.85879" lon="1.57829">
        <ele>503.7</ele>
        <time>2020-08-31T06:24:06Z</time>
      </trkpt>
      <trkpt lat="42.8588" lon="1.57702">
        <ele>507.4</ele>
        <time>2020-08-31T06:25:11Z</time>
      </trkpt>
      <trkpt lat="42.85958" lon="1.5763">
        <ele>511.5</ele>
        <time>2020-08-31T06:26:12Z</time>
      </trkpt>
      <trkpt lat="42.86044" lon="1.57581">
        <ele>515.8</ele>
        <time>2020-08-31T06:27:12Z</time>
      </trkpt>
      <trkpt lat="42.86112" lon="1.57493">
        <ele>520.8</ele>
        <time>2020-08-31T06:28:13Z</time>
      </trkpt>
      <trkpt lat="42.86171" lon="1.57391">
        <ele>526.5</ele>
        <time>2020-08-31T06:29:13Z</time>
      </trkpt>
      <trkpt lat="42.8622" lon="1.5728">
        <ele>532.6</ele>
        <time>2020-08-31T06:30:14Z</time>
      </trkpt>
      <trkpt lat="42.86296" lon="1.57197">
        <ele>542.2</ele>
        <time>2020-08-31T06:31:15Z</time>
      </trkpt>
      <trkpt lat="42.86363" lon="1.57099">
        <ele>555.9</ele>
        <time>2020-08-31T06:32:16Z</time>
      </trkpt>
      <trkpt lat="42.86446" lon="1.57032">
        <ele>566.4</ele>
        <time>2020-08-31T06:33:19Z</time>
      </trkpt>
      <trkpt lat="42.86537" lon="1.56986">
        <ele>573.2</ele>
        <time>2020-08-31T06:34:19Z</time>
      </trkpt>
      <trkpt lat="42.86627" lon="1.56938">
        <ele>578.1</ele>
        <time>2020-08-31T06:35:19Z</time>
      </trkpt>
      <trkpt lat="42.86714" lon="1.56876">
        <ele>582.1</ele>
        <time>2020-08-31T06:36:19Z</time>
      </trkpt>
      <trkpt lat="42.86806" lon="1.56835">
        <ele>585.5</ele>
        <time>2020-08-31T06:37:20Z</time>
      </trkpt>
      <trkpt lat="42.86896" lon="1.56831">
        <ele>588.4</ele>
        <time>2020-08-31T06:38:17Z</time>
      </trkpt>
      <trkpt lat="42.86994" lon="1.56814">
        <ele>591.2</ele>
        <time>2020-08-31T06:39:17Z</time>
      </trkpt>
      <trkpt lat="42.87085" lon="1.56769">
        <ele>594</ele>
        <time>2020-08-31T06:40:20Z</time>
      </trkpt>
      <trkpt lat="42.87132" lon="1.56658">
        <ele>598.4</ele>
        <time>2020-08-31T06:41:25Z</time>
      </trkpt>
      <trkpt lat="42.87161" lon="1.56536">
        <ele>602.8</ele>
        <time>2020-08-31T06:42:25Z</time>
      </trkpt>
      <trkpt lat="42.87238" lon="1.56471">
        <ele>606.4</ele>
        <time>2020-08-31T06:43:14Z</time>
      </trkpt>
      <trkpt lat="42.87321" lon="1.56409">
        <ele>609.3</ele>
        <time>2020-08-31T06:43:54Z</time>
      </trkpt>
      <trkpt lat="42.87373" lon="1.56296">
        <ele>614</ele>
        <time>2020-08-31T06:44:52Z</time>
      </trkpt>
      <trkpt lat="42.87419" lon="1.56182">
        <ele>618.5</ele>
        <time>2020-08-31T06:45:27Z</time>
      </trkpt>
      <trkpt lat="42.87474" lon="1.56071">
        <ele>626.5</ele>
        <time>2020-08-31T06:46:29Z</time>
      </trkpt>
      <trkpt lat="42.87504" lon="1.55945">
        <ele>632.2</ele>
        <time>2020-08-31T06:47:21Z</time>
      </trkpt>
      <trkpt lat="42.87501" lon="1.55809">
        <ele>637.8</ele>
        <time>2020-08-31T06:47:41Z</time>
      </trkpt>
      <trkpt lat="42.87502" lon="1.5564">
        <ele>636.4</ele>
        <time>2020-08-31T06:47:56Z</time>
      </trkpt>
      <trkpt lat="42.87525" lon="1.55484">
        <ele>634.1</ele>
        <time>2020-08-31T06:48:11Z</time>
      </trkpt>
      <trkpt lat="42.87525" lon="1.5531">
        <ele>631.5</ele>
        <time>2020-08-31T06:48:26Z</time>
      </trkpt>
      <trkpt lat="42.87546" lon="1.55134">
        <ele>629</ele>
        <time>2020-08-31T06:48:41Z</time>
      </trkpt>
      <trkpt lat="42.87591" lon="1.55016">
        <ele>631.3</ele>
        <time>2020-08-31T06:48:51Z</time>
      </trkpt>
      <trkpt lat="42.87686" lon="1.54956">
        <ele>632</ele>
        <time>2020-08-31T06:49:06Z</time>
      </trkpt>
      <trkpt lat="42.8776" lon="1.5488">
        <ele>631.1</ele>
        <time>2020-08-31T06:49:57Z</time>
      </trkpt>
      <trkpt lat="42.87822" lon="1.54778">
        <ele>631.2</ele>
        <time>2020-08-31T06:51:00Z</time>
      </trkpt>
      <trkpt lat="42.87895" lon="1.5469">
        <ele>634</ele>
        <time>2020-08-31T06:52:08Z</time>
      </trkpt>
      <trkpt lat="42.87981" lon="1.54625">
        <ele>639.9</ele>
        <time>2020-08-31T06:53:18Z</time>
      </trkpt>
      <trkpt lat="42.88009" lon="1.545">
        <ele>644.7</ele>
        <time>2020-08-31T06:54:18Z</time>
      </trkpt>
      <trkpt lat="42.87994" lon="1.54369">
        <ele>650.4</ele>
        <time>2020-08-31T06:55:22Z</time>
      </trkpt>
      <trkpt lat="42.87932" lon="1.54264">
        <ele>655.9</ele>
        <time>2020-08-31T06:56:21Z</time>
      </trkpt>
      <trkpt lat="42.87883" lon="1.54139">
        <ele>658.1</ele>
        <time>2020-08-31T06:56:56Z</time>
      </trkpt>
      <trkpt lat="42.87859" lon="1.53999">
        <ele>659.1</ele>
        <time>2020-08-31T06:57:31Z</time>
      </trkpt>
      <trkpt lat="42.87837" lon="1.53878">
        <ele>661.2</ele>
        <time>2020-08-31T06:57:56Z</time>
      </trkpt>
      <trkpt lat="42.87829" lon="1.53735">
        <ele>662.5</ele>
        <time>2020-08-31T06:58:21Z</time>
      </trkpt>
      <trkpt lat="42.8783" lon="1.53607">
        <ele>663.6</ele>
        <time>2020-08-31T06:58:46Z</time>
      </trkpt>
      <trkpt lat="42.87832" lon="1.53479">
        <ele>664.9</ele>
        <time>2020-08-31T06:59:16Z</time>
      </trkpt>
      <trkpt lat="42.87849" lon="1.53351">
        <ele>666.9</ele>
        <time>2020-08-31T06:59:51Z</time>
      </trkpt>
      <trkpt lat="42.87865" lon="1.53218">
        <ele>668.9</ele>
        <time>2020-08-31T07:00:26Z</time>
      </trkpt>
      <trkpt lat="42.87843" lon="1.53074">
        <ele>670.6</ele>
        <time>2020-08-31T07:01:01Z</time>
      </trkpt>
      <trkpt lat="42.87815" lon="1.5294">
        <ele>671.9</ele>
        <time>2020-08-31T07:01:31Z</time>
      </trkpt>
      <trkpt lat="42.87814" lon="1.52808">
        <ele>673</ele>
        <time>2020-08-31T07:02:01Z</time>
      </trkpt>
      <trkpt lat="42.87838" lon="1.52679">
        <ele>674.5</ele>
        <time>2020-08-31T07:02:36Z</time>
      </trkpt>
      <trkpt lat="42.8786" lon="1.52558">
        <ele>676</ele>
        <time>2020-08-31T07:03:11Z</time>
      </trkpt>
      <trkpt lat="42.87885" lon="1.52438">
        <ele>677.4</ele>
        <time>2020-08-31T07:03:46Z</time>
      </trkpt>
      <trkpt lat="42.87911" lon="1.52308">
        <ele>679</ele>
        <time>2020-08-31T07:04:26Z</time>
      </trkpt>
      <trkpt lat="42.87938" lon="1.52179">
        <ele>681.4</ele>
        <time>2020-08-31T07:05:22Z</time>
      </trkpt>
      <trkpt lat="42.87965" lon="1.52049">
        <ele>684.1</ele>
        <time>2020-08-31T07:08:12Z</time>
      </trkpt>
      <trkpt lat="42.87983" lon="1.51926">
        <ele>685.6</ele>
        <time>2020-08-31T07:09:02Z</time>
      </trkpt>
      <trkpt lat="42.88013" lon="1.51804">
        <ele>687.8</ele>
        <time>2020-08-31T07:10:01Z</time>
      </trkpt>
      <trkpt lat="42.88039" lon="1.51685">
        <ele>690.6</ele>
        <time>2020-08-31T07:11:09Z</time>
      </trkpt>
      <trkpt lat="42.88019" lon="1.5156">
        <ele>693.5</ele>
        <time>2020-08-31T07:12:21Z</time>
      </trkpt>
      <trkpt lat="42.88034" lon="1.51433">
        <ele>696.9</ele>
        <time>2020-08-31T07:13:26Z</time>
      </trkpt>
      <trkpt lat="42.88073" lon="1.51312">
        <ele>703.9</ele>
        <time>2020-08-31T07:14:30Z</time>
      </trkpt>
      <trkpt lat="42.88084" lon="1.51179">
        <ele>716.2</ele>
        <time>2020-08-31T07:15:38Z</time>
      </trkpt>
      <trkpt lat="42.88084" lon="1.51048">
        <ele>726.5</ele>
        <time>2020-08-31T07:16:45Z</time>
      </trkpt>
      <trkpt lat="42.88101" lon="1.50919">
        <ele>734.6</ele>
        <time>2020-08-31T07:17:51Z</time>
      </trkpt>
      <trkpt lat="42.88077" lon="1.50791">
        <ele>740.8</ele>
        <time>2020-08-31T07:18:52Z</time>
      </trkpt>
      <trkpt lat="42.88065" lon="1.50659">
        <ele>748.2</ele>
        <time>2020-08-31T07:19:56Z</time>
      </trkpt>
      <trkpt lat="42.8805" lon="1.50535">
        <ele>757.1</ele>
        <time>2020-08-31T07:20:59Z</time>
      </trkpt>
      <trkpt lat="42.88074" lon="1.50414">
        <ele>763.9</ele>
        <time>2020-08-31T07:22:02Z</time>
      </trkpt>
      <trkpt lat="42.88154" lon="1.50342">
        <ele>770.1</ele>
        <time>2020-08-31T07:23:12Z</time>
      </trkpt>
      <trkpt lat="42.88231" lon="1.50267">
        <ele>776.4</ele>
        <time>2020-08-31T07:24:15Z</time>
      </trkpt>
      <trkpt lat="42.88166" lon="1.50175">
        <ele>784.6</ele>
        <time>2020-08-31T07:25:49Z</time>
      </trkpt>
      <trkpt lat="42.88076" lon="1.50116">
        <ele>791.8</ele>
        <time>2020-08-31T07:27:01Z</time>
      </trkpt>
      <trkpt lat="42.88003" lon="1.50038">
        <ele>798.4</ele>
        <time>2020-08-31T07:28:07Z</time>
      </trkpt>
      <trkpt lat="42.88092" lon="1.50059">
        <ele>815.8</ele>
        <time>2020-08-31T07:33:43Z</time>
      </trkpt>
      <trkpt lat="42.88177" lon="1.50001">
        <ele>823.6</ele>
        <time>2020-08-31T07:34:56Z</time>
      </trkpt>
      <trkpt lat="42.8827" lon="1.49967">
        <ele>828.8</ele>
        <time>2020-08-31T07:36:04Z</time>
      </trkpt>
      <trkpt lat="42.88345" lon="1.49888">
        <ele>834.8</ele>
        <time>2020-08-31T07:37:08Z</time>
      </trkpt>
      <trkpt lat="42.88394" lon="1.49774">
        <ele>842.6</ele>
        <time>2020-08-31T07:38:17Z</time>
      </trkpt>
      <trkpt lat="42.88394" lon="1.49648">
        <ele>850.6</ele>
        <time>2020-08-31T07:39:28Z</time>
      </trkpt>
      <trkpt lat="42.88459" lon="1.49554">
        <ele>869.2</ele>
        <time>2020-08-31T07:41:20Z</time>
      </trkpt>
      <trkpt lat="42.8855" lon="1.49576">
        <ele>879.2</ele>
        <time>2020-08-31T07:42:30Z</time>
      </trkpt>
      <trkpt lat="42.8863" lon="1.49501">
        <ele>894</ele>
        <time>2020-08-31T07:43:50Z</time>
      </trkpt>
      <trkpt lat="42.88697" lon="1.49407">
        <ele>907</ele>
        <time>2020-08-31T07:44:59Z</time>
      </trkpt>
      <trkpt lat="42.8873" lon="1.49286">
        <ele>917.3</ele>
        <time>2020-08-31T07:46:02Z</time>
      </trkpt>
      <trkpt lat="42.88747" lon="1.49162">
        <ele>924.2</ele>
        <time>2020-08-31T07:47:07Z</time>
      </trkpt>
      <trkpt lat="42.88745" lon="1.49033">
        <ele>930.7</ele>
        <time>2020-08-31T07:48:18Z</time>
      </trkpt>
      <trkpt lat="42.8877" lon="1.48907">
        <ele>937.1</ele>
        <time>2020-08-31T07:49:23Z</time>
      </trkpt>
      <trkpt lat="42.88836" lon="1.48816">
        <ele>944.1</ele>
        <time>2020-08-31T07:50:32Z</time>
      </trkpt>
      <trkpt lat="42.88905" lon="1.48722">
        <ele>950.6</ele>
        <time>2020-08-31T07:51:44Z</time>
      </trkpt>
      <trkpt lat="42.88936" lon="1.48604">
        <ele>957.9</ele>
        <time>2020-08-31T07:52:49Z</time>
      </trkpt>
      <trkpt lat="42.89001" lon="1.48504">
        <ele>965</ele>
        <time>2020-08-31T07:54:01Z</time>
      </trkpt>
      <trkpt lat="42.89063" lon="1.48403">
        <ele>974.8</ele>
        <time>2020-08-31T07:55:24Z</time>
      </trkpt>
      <trkpt lat="42.89076" lon="1.48271">
        <ele>988.1</ele>
        <time>2020-08-31T07:56:39Z</time>
      </trkpt>
      <trkpt lat="42.89135" lon="1.48171">
        <ele>1001.8</ele>
        <time>2020-08-31T07:57:47Z</time>
      </trkpt>
      <trkpt lat="42.89218" lon="1.48105">
        <ele>1010.8</ele>
        <time>2020-08-31T07:59:05Z</time>
      </trkpt>
      <trkpt lat="42.89287" lon="1.48015">
        <ele>1017.7</ele>
        <time>2020-08-31T08:00:15Z</time>
      </trkpt>
      <trkpt lat="42.89362" lon="1.47936">
        <ele>1026.6</ele>
        <time>2020-08-31T08:01:29Z</time>
      </trkpt>
      <trkpt lat="42.89364" lon="1.47805">
        <ele>1031.9</ele>
        <time>2020-08-31T08:02:37Z</time>
      </trkpt>
      <trkpt lat="42.8938" lon="1.47672">
        <ele>1037.9</ele>
        <time>2020-08-31T08:03:56Z</time>
      </trkpt>
      <trkpt lat="42.89429" lon="1.47568">
        <ele>1044.2</ele>
        <time>2020-08-31T08:05:03Z</time>
      </trkpt>
      <trkpt lat="42.89493" lon="1.47482">
        <ele>1054.9</ele>
        <time>2020-08-31T08:06:13Z</time>
      </trkpt>
      <trkpt lat="42.895" lon="1.47349">
        <ele>1066.6</ele>
        <time>2020-08-31T08:07:30Z</time>
      </trkpt>
      <trkpt lat="42.89528" lon="1.47224">
        <ele>1074.9</ele>
        <time>2020-08-31T08:08:38Z</time>
      </trkpt>
      <trkpt lat="42.89573" lon="1.47118">
        <ele>1081.8</ele>
        <time>2020-08-31T08:09:34Z</time>
      </trkpt>
      <trkpt lat="42.89568" lon="1.46995">
        <ele>1087.7</ele>
        <time>2020-08-31T08:10:24Z</time>
      </trkpt>
      <trkpt lat="42.89564" lon="1.46862">
        <ele>1094.4</ele>
        <time>2020-08-31T08:11:23Z</time>
      </trkpt>
      <trkpt lat="42.89602" lon="1.46738">
        <ele>1100.4</ele>
        <time>2020-08-31T08:12:26Z</time>
      </trkpt>
      <trkpt lat="42.89617" lon="1.46608">
        <ele>1105.5</ele>
        <time>2020-08-31T08:13:26Z</time>
      </trkpt>
      <trkpt lat="42.89647" lon="1.4648">
        <ele>1109.7</ele>
        <time>2020-08-31T08:14:25Z</time>
      </trkpt>
      <trkpt lat="42.89698" lon="1.46367">
        <ele>1113.8</ele>
        <time>2020-08-31T08:15:25Z</time>
      </trkpt>
      <trkpt lat="42.89705" lon="1.4623">
        <ele>1117.5</ele>
        <time>2020-08-31T08:16:21Z</time>
      </trkpt>
      <trkpt lat="42.89727" lon="1.46361">
        <ele>1122.9</ele>
        <time>2020-08-31T08:17:56Z</time>
      </trkpt>
      <trkpt lat="42.8969" lon="1.46478">
        <ele>1125.1</ele>
        <time>2020-08-31T08:18:41Z</time>
      </trkpt>
      <trkpt lat="42.89688" lon="1.46614">
        <ele>1127.4</ele>
        <time>2020-08-31T08:19:36Z</time>
      </trkpt>
      <trkpt lat="42.89674" lon="1.46746">
        <ele>1132.2</ele>
        <time>2020-08-31T08:20:30Z</time>
      </trkpt>
      <trkpt lat="42.89689" lon="1.46877">
        <ele>1143.7</ele>
        <time>2020-08-31T08:21:34Z</time>
      </trkpt>
      <trkpt lat="42.897" lon="1.46746">
        <ele>1157.2</ele>
        <time>2020-08-31T08:23:32Z</time>
      </trkpt>
      <trkpt lat="42.89738" lon="1.46622">
        <ele>1162</ele>
        <time>2020-08-31T08:24:28Z</time>
      </trkpt>
      <trkpt lat="42.89787" lon="1.46511">
        <ele>1166.6</ele>
        <time>2020-08-31T08:25:28Z</time>
      </trkpt>
      <trkpt lat="42.89842" lon="1.46399">
        <ele>1171.1</ele>
        <time>2020-08-31T08:26:29Z</time>
      </trkpt>
      <trkpt lat="42.89859" lon="1.46277">
        <ele>1174.8</ele>
        <time>2020-08-31T08:27:26Z</time>
      </trkpt>
      <trkpt lat="42.89821" lon="1.46156">
        <ele>1178.3</ele>
        <time>2020-08-31T08:28:25Z</time>
      </trkpt>
      <trkpt lat="42.89848" lon="1.46039">
        <ele>1182.7</ele>
        <time>2020-08-31T08:29:41Z</time>
      </trkpt>
      <trkpt lat="42.89863" lon="1.45918">
        <ele>1187.7</ele>
        <time>2020-08-31T08:31:02Z</time>
      </trkpt>
      <trkpt lat="42.89869" lon="1.45791">
        <ele>1194.7</ele>
        <time>2020-08-31T08:32:35Z</time>
      </trkpt>
      <trkpt lat="42.89902" lon="1.4567">
        <ele>1199.6</ele>
        <time>2020-08-31T08:33:39Z</time>
      </trkpt>
      <trkpt lat="42.89929" lon="1.45545">
        <ele>1204.1</ele>
        <time>2020-08-31T08:34:42Z</time>
      </trkpt>
      <trkpt lat="42.8993" lon="1.45422">
        <ele>1207.6</ele>
        <time>2020-08-31T08:35:37Z</time>
      </trkpt>
      <trkpt lat="42.89913" lon="1.45288">
        <ele>1213.3</ele>
        <time>2020-08-31T08:36:42Z</time>
      </trkpt>
      <trkpt lat="42.89979" lon="1.4519">
        <ele>1222.9</ele>
        <time>2020-08-31T08:39:59Z</time>
      </trkpt>
      <trkpt lat="42.90007" lon="1.45064">
        <ele>1229</ele>
        <time>2020-08-31T08:40:24Z</time>
      </trkpt>
      <trkpt lat="42.90052" lon="1.44944">
        <ele>1243.7</ele>
        <time>2020-08-31T08:48:58Z</time>
      </trkpt>
      <trkpt lat="42.90067" lon="1.44779">
        <ele>1243.9</ele>
        <time>2020-08-31T08:49:18Z</time>
      </trkpt>
      <trkpt lat="42.90121" lon="1.44643">
        <ele>1243</ele>
        <time>2020-08-31T08:49:33Z</time>
      </trkpt>
      <trkpt lat="42.90198" lon="1.44528">
        <ele>1242.2</ele>
        <time>2020-08-31T08:49:48Z</time>
      </trkpt>
      <trkpt lat="42.90322" lon="1.44532">
        <ele>1240.3</ele>
        <time>2020-08-31T08:50:03Z</time>
      </trkpt>
      <trkpt lat="42.90319" lon="1.44401">
        <ele>1226.2</ele>
        <time>2020-08-31T08:51:40Z</time>
      </trkpt>
      <trkpt lat="42.9028" lon="1.44285">
        <ele>1220.8</ele>
        <time>2020-08-31T08:51:55Z</time>
      </trkpt>
      <trkpt lat="42.90281" lon="1.44127">
        <ele>1217.8</ele>
        <time>2020-08-31T08:52:10Z</time>
      </trkpt>
      <trkpt lat="42.90348" lon="1.44034">
        <ele>1212</ele>
        <time>2020-08-31T08:52:25Z</time>
      </trkpt>
      <trkpt lat="42.90393" lon="1.43903">
        <ele>1206.1</ele>
        <time>2020-08-31T08:52:50Z</time>
      </trkpt>
      <trkpt lat="42.90473" lon="1.4381">
        <ele>1196.3</ele>
        <time>2020-08-31T08:53:10Z</time>
      </trkpt>
      <trkpt lat="42.90519" lon="1.43691">
        <ele>1188.9</ele>
        <time>2020-08-31T08:53:25Z</time>
      </trkpt>
      <trkpt lat="42.90468" lon="1.43576">
        <ele>1175.3</ele>
        <time>2020-08-31T08:53:40Z</time>
      </trkpt>
      <trkpt lat="42.9043" lon="1.43426">
        <ele>1180.5</ele>
        <time>2020-08-31T08:54:00Z</time>
      </trkpt>
      <trkpt lat="42.90506" lon="1.43303">
        <ele>1175</ele>
        <time>2020-08-31T08:54:20Z</time>
      </trkpt>
      <trkpt lat="42.90506" lon="1.43153">
        <ele>1159.6</ele>
        <time>2020-08-31T08:54:45Z</time>
      </trkpt>
      <trkpt lat="42.90473" lon="1.43032">
        <ele>1147.3</ele>
        <time>2020-08-31T08:55:05Z</time>
      </trkpt>
      <trkpt lat="42.90557" lon="1.42952">
        <ele>1142.5</ele>
        <time>2020-08-31T08:55:25Z</time>
      </trkpt>
      <trkpt lat="42.90642" lon="1.42901">
        <ele>1139.9</ele>
        <time>2020-08-31T08:55:40Z</time>
      </trkpt>
      <trkpt lat="42.90613" lon="1.42769">
        <ele>1139.8</ele>
        <time>2020-08-31T08:55:55Z</time>
      </trkpt>
      <trkpt lat="42.90635" lon="1.42613">
        <ele>1138.7</ele>
        <time>2020-08-31T08:56:10Z</time>
      </trkpt>
      <trkpt lat="42.90709" lon="1.42537">
        <ele>1138.3</ele>
        <time>2020-08-31T08:56:20Z</time>
      </trkpt>
      <trkpt lat="42.90775" lon="1.4244">
        <ele>1129.3</ele>
        <time>2020-08-31T08:56:35Z</time>
      </trkpt>
      <trkpt lat="42.90691" lon="1.42317">
        <ele>1119.2</ele>
        <time>2020-08-31T08:56:50Z</time>
      </trkpt>
      <trkpt lat="42.90629" lon="1.42209">
        <ele>1112.2</ele>
        <time>2020-08-31T08:57:05Z</time>
      </trkpt>
      <trkpt lat="42.90672" lon="1.42078">
        <ele>1104.8</ele>
        <time>2020-08-31T08:57:20Z</time>
      </trkpt>
      <trkpt lat="42.90689" lon="1.41932">
        <ele>1100</ele>
        <time>2020-08-31T08:57:35Z</time>
      </trkpt>
      <trkpt lat="42.90679" lon="1.41785">
        <ele>1090.4</ele>
        <time>2020-08-31T08:57:50Z</time>
      </trkpt>
      <trkpt lat="42.90755" lon="1.41655">
        <ele>1083.3</ele>
        <time>2020-08-31T08:58:05Z</time>
      </trkpt>
      <trkpt lat="42.90714" lon="1.41533">
        <ele>1072.3</ele>
        <time>2020-08-31T08:58:25Z</time>
      </trkpt>
      <trkpt lat="42.90633" lon="1.41409">
        <ele>1060.8</ele>
        <time>2020-08-31T08:58:40Z</time>
      </trkpt>
      <trkpt lat="42.90638" lon="1.41254">
        <ele>1055.8</ele>
        <time>2020-08-31T08:58:55Z</time>
      </trkpt>
      <trkpt lat="42.90684" lon="1.41101">
        <ele>1050.7</ele>
        <time>2020-08-31T08:59:10Z</time>
      </trkpt>
      <trkpt lat="42.90692" lon="1.40931">
        <ele>1048</ele>
        <time>2020-08-31T08:59:25Z</time>
      </trkpt>
      <trkpt lat="42.90668" lon="1.40767">
        <ele>1040.5</ele>
        <time>2020-08-31T08:59:40Z</time>
      </trkpt>
      <trkpt lat="42.90693" lon="1.4059">
        <ele>1033.3</ele>
        <time>2020-08-31T08:59:55Z</time>
      </trkpt>
      <trkpt lat="42.90732" lon="1.40425">
        <ele>1022.9</ele>
        <time>2020-08-31T09:00:10Z</time>
      </trkpt>
      <trkpt lat="42.90741" lon="1.40248">
        <ele>1018.2</ele>
        <time>2020-08-31T09:00:25Z</time>
      </trkpt>
      <trkpt lat="42.90691" lon="1.40082">
        <ele>1015</ele>
        <time>2020-08-31T09:00:40Z</time>
      </trkpt>
      <trkpt lat="42.90673" lon="1.39908">
        <ele>1006.2</ele>
        <time>2020-08-31T09:00:55Z</time>
      </trkpt>
      <trkpt lat="42.90702" lon="1.39789">
        <ele>1000.6</ele>
        <time>2020-08-31T09:01:05Z</time>
      </trkpt>
      <trkpt lat="42.90713" lon="1.39617">
        <ele>994.1</ele>
        <time>2020-08-31T09:01:20Z</time>
      </trkpt>
      <trkpt lat="42.90726" lon="1.39475">
        <ele>989.6</ele>
        <time>2020-08-31T09:01:35Z</time>
      </trkpt>
      <trkpt lat="42.90703" lon="1.39304">
        <ele>982.7</ele>
        <time>2020-08-31T09:01:50Z</time>
      </trkpt>
      <trkpt lat="42.90647" lon="1.39167">
        <ele>974.7</ele>
        <time>2020-08-31T09:02:05Z</time>
      </trkpt>
      <trkpt lat="42.90642" lon="1.39006">
        <ele>965.9</ele>
        <time>2020-08-31T09:02:20Z</time>
      </trkpt>
      <trkpt lat="42.907" lon="1.38844">
        <ele>955.9</ele>
        <time>2020-08-31T09:02:35Z</time>
      </trkpt>
      <trkpt lat="42.90753" lon="1.38743">
        <ele>953.6</ele>
        <time>2020-08-31T09:02:45Z</time>
      </trkpt>
      <trkpt lat="42.90853" lon="1.38719">
        <ele>949</ele>
        <time>2020-08-31T09:03:00Z</time>
      </trkpt>
      <trkpt lat="42.90877" lon="1.38594">
        <ele>946.5</ele>
        <time>2020-08-31T09:03:15Z</time>
      </trkpt>
      <trkpt lat="42.9085" lon="1.38449">
        <ele>928.2</ele>
        <time>2020-08-31T09:03:35Z</time>
      </trkpt>
      <trkpt lat="42.90914" lon="1.38357">
        <ele>918.9</ele>
        <time>2020-08-31T09:03:45Z</time>
      </trkpt>
      <trkpt lat="42.90929" lon="1.38195">
        <ele>911.7</ele>
        <time>2020-08-31T09:04:00Z</time>
      </trkpt>
      <trkpt lat="42.90831" lon="1.38085">
        <ele>897.5</ele>
        <time>2020-08-31T09:04:20Z</time>
      </trkpt>
      <trkpt lat="42.90716" lon="1.38016">
        <ele>886.3</ele>
        <time>2020-08-31T09:04:35Z</time>
      </trkpt>
      <trkpt lat="42.90747" lon="1.37841">
        <ele>877.5</ele>
        <time>2020-08-31T09:04:50Z</time>
      </trkpt>
      <trkpt lat="42.90705" lon="1.37693">
        <ele>869.3</ele>
        <time>2020-08-31T09:05:10Z</time>
      </trkpt>
      <trkpt lat="42.90732" lon="1.37517">
        <ele>858.9</ele>
        <time>2020-08-31T09:05:25Z</time>
      </trkpt>
      <trkpt lat="42.90651" lon="1.37457">
        <ele>849.3</ele>
        <time>2020-08-31T09:05:40Z</time>
      </trkpt>
      <trkpt lat="42.90598" lon="1.37324">
        <ele>841.9</ele>
        <time>2020-08-31T09:05:55Z</time>
      </trkpt>
      <trkpt lat="42.90682" lon="1.37202">
        <ele>831.4</ele>
        <time>2020-08-31T09:06:10Z</time>
      </trkpt>
      <trkpt lat="42.90741" lon="1.37081">
        <ele>829.9</ele>
        <time>2020-08-31T09:06:25Z</time>
      </trkpt>
      <trkpt lat="42.90639" lon="1.37017">
        <ele>817.8</ele>
        <time>2020-08-31T09:06:55Z</time>
      </trkpt>
      <trkpt lat="42.90553" lon="1.36957">
        <ele>816.2</ele>
        <time>2020-08-31T09:07:15Z</time>
      </trkpt>
      <trkpt lat="42.90475" lon="1.36884">
        <ele>813.6</ele>
        <time>2020-08-31T09:07:40Z</time>
      </trkpt>
      <trkpt lat="42.90376" lon="1.36865">
        <ele>807.1</ele>
        <time>2020-08-31T09:08:00Z</time>
      </trkpt>
      <trkpt lat="42.90344" lon="1.36742">
        <ele>805.5</ele>
        <time>2020-08-31T09:08:15Z</time>
      </trkpt>
      <trkpt lat="42.90344" lon="1.36584">
        <ele>803.4</ele>
        <time>2020-08-31T09:08:30Z</time>
      </trkpt>
      <trkpt lat="42.90269" lon="1.36464">
        <ele>790.8</ele>
        <time>2020-08-31T09:08:50Z</time>
      </trkpt>
      <trkpt lat="42.90177" lon="1.36383">
        <ele>780.7</ele>
        <time>2020-08-31T09:09:04Z</time>
      </trkpt>
      <trkpt lat="42.9011" lon="1.36298">
        <ele>768.4</ele>
        <time>2020-08-31T09:09:24Z</time>
      </trkpt>
      <trkpt lat="42.89987" lon="1.36259">
        <ele>765.6</ele>
        <time>2020-08-31T09:09:39Z</time>
      </trkpt>
      <trkpt lat="42.89913" lon="1.36165">
        <ele>756.4</ele>
        <time>2020-08-31T09:09:54Z</time>
      </trkpt>
      <trkpt lat="42.89801" lon="1.36129">
        <ele>735.9</ele>
        <time>2020-08-31T09:10:29Z</time>
      </trkpt>
      <trkpt lat="42.89691" lon="1.36028">
        <ele>731</ele>
        <time>2020-08-31T09:10:44Z</time>
      </trkpt>
      <trkpt lat="42.89596" lon="1.36025">
        <ele>724.5</ele>
        <time>2020-08-31T09:10:54Z</time>
      </trkpt>
      <trkpt lat="42.89554" lon="1.35863">
        <ele>712</ele>
        <time>2020-08-31T09:11:14Z</time>
      </trkpt>
      <trkpt lat="42.89555" lon="1.35735">
        <ele>711.6</ele>
        <time>2020-08-31T09:11:24Z</time>
      </trkpt>
      <trkpt lat="42.89554" lon="1.35599">
        <ele>705.3</ele>
        <time>2020-08-31T09:11:34Z</time>
      </trkpt>
      <trkpt lat="42.89527" lon="1.35467">
        <ele>697.5</ele>
        <time>2020-08-31T09:11:44Z</time>
      </trkpt>
      <trkpt lat="42.89477" lon="1.35345">
        <ele>691.3</ele>
        <time>2020-08-31T09:11:54Z</time>
      </trkpt>
      <trkpt lat="42.89419" lon="1.35228">
        <ele>685.8</ele>
        <time>2020-08-31T09:12:04Z</time>
      </trkpt>
      <trkpt lat="42.8937" lon="1.35112">
        <ele>659.7</ele>
        <time>2020-08-31T09:12:44Z</time>
      </trkpt>
      <trkpt lat="42.893" lon="1.34981">
        <ele>651.3</ele>
        <time>2020-08-31T09:12:59Z</time>
      </trkpt>
      <trkpt lat="42.89197" lon="1.3491">
        <ele>646.7</ele>
        <time>2020-08-31T09:13:14Z</time>
      </trkpt>
      <trkpt lat="42.89108" lon="1.34854">
        <ele>638.1</ele>
        <time>2020-08-31T09:17:09Z</time>
      </trkpt>
      <trkpt lat="42.89024" lon="1.34802">
        <ele>636</ele>
        <time>2020-08-31T09:18:03Z</time>
      </trkpt>
      <trkpt lat="42.8894" lon="1.34737">
        <ele>639.2</ele>
        <time>2020-08-31T09:19:08Z</time>
      </trkpt>
      <trkpt lat="42.8896" lon="1.34592">
        <ele>650.4</ele>
        <time>2020-08-31T09:34:06Z</time>
      </trkpt>
      <trkpt lat="42.89003" lon="1.34466">
        <ele>650.3</ele>
        <time>2020-08-31T09:34:26Z</time>
      </trkpt>
      <trkpt lat="42.89061" lon="1.34349">
        <ele>649.6</ele>
        <time>2020-08-31T09:34:46Z</time>
      </trkpt>
      <trkpt lat="42.8911" lon="1.34247">
        <ele>649.3</ele>
        <time>2020-08-31T09:35:06Z</time>
      </trkpt>
      <trkpt lat="42.89173" lon="1.34125">
        <ele>648.3</ele>
        <time>2020-08-31T09:35:25Z</time>
      </trkpt>
      <trkpt lat="42.89231" lon="1.34009">
        <ele>645.8</ele>
        <time>2020-08-31T09:35:40Z</time>
      </trkpt>
      <trkpt lat="42.89297" lon="1.33887">
        <ele>642.4</ele>
        <time>2020-08-31T09:35:55Z</time>
      </trkpt>
      <trkpt lat="42.89368" lon="1.33755">
        <ele>637.3</ele>
        <time>2020-08-31T09:36:10Z</time>
      </trkpt>
      <trkpt lat="42.8935" lon="1.33587">
        <ele>630.6</ele>
        <time>2020-08-31T09:36:25Z</time>
      </trkpt>
      <trkpt lat="42.8937" lon="1.33463">
        <ele>626.2</ele>
        <time>2020-08-31T09:36:35Z</time>
      </trkpt>
      <trkpt lat="42.89403" lon="1.33345">
        <ele>620.8</ele>
        <time>2020-08-31T09:36:45Z</time>
      </trkpt>
      <trkpt lat="42.89449" lon="1.33213">
        <ele>614.8</ele>
        <time>2020-08-31T09:37:00Z</time>
      </trkpt>
      <trkpt lat="42.89528" lon="1.3313">
        <ele>612.8</ele>
        <time>2020-08-31T09:37:15Z</time>
      </trkpt>
      <trkpt lat="42.89606" lon="1.33049">
        <ele>609.9</ele>
        <time>2020-08-31T09:37:30Z</time>
      </trkpt>
      <trkpt lat="42.89656" lon="1.3294">
        <ele>608</ele>
        <time>2020-08-31T09:37:45Z</time>
      </trkpt>
      <trkpt lat="42.89681" lon="1.32815">
        <ele>606.5</ele>
        <time>2020-08-31T09:38:00Z</time>
      </trkpt>
      <trkpt lat="42.89711" lon="1.32697">
        <ele>604</ele>
        <time>2020-08-31T09:38:15Z</time>
      </trkpt>
      <trkpt lat="42.89753" lon="1.32544">
        <ele>602.4</ele>
        <time>2020-08-31T09:38:35Z</time>
      </trkpt>
      <trkpt lat="42.89788" lon="1.3242">
        <ele>602.1</ele>
        <time>2020-08-31T09:38:50Z</time>
      </trkpt>
      <trkpt lat="42.89785" lon="1.32294">
        <ele>601.3</ele>
        <time>2020-08-31T09:39:05Z</time>
      </trkpt>
      <trkpt lat="42.89739" lon="1.32185">
        <ele>599.3</ele>
        <time>2020-08-31T09:39:20Z</time>
      </trkpt>
      <trkpt lat="42.89689" lon="1.32046">
        <ele>594</ele>
        <time>2020-08-31T09:39:40Z</time>
      </trkpt>
      <trkpt lat="42.89689" lon="1.31922">
        <ele>592.1</ele>
        <time>2020-08-31T09:39:55Z</time>
      </trkpt>
      <trkpt lat="42.89753" lon="1.31783">
        <ele>590.4</ele>
        <time>2020-08-31T09:40:15Z</time>
      </trkpt>
      <trkpt lat="42.89784" lon="1.31659">
        <ele>589.9</ele>
        <time>2020-08-31T09:40:30Z</time>
      </trkpt>
      <trkpt lat="42.89799" lon="1.31527">
        <ele>588.8</ele>
        <time>2020-08-31T09:40:45Z</time>
      </trkpt>
      <trkpt lat="42.89809" lon="1.31401">
        <ele>587.4</ele>
        <time>2020-08-31T09:41:00Z</time>
      </trkpt>
      <trkpt lat="42.89834" lon="1.31248">
        <ele>585.8</ele>
        <time>2020-08-31T09:41:20Z</time>
      </trkpt>
      <trkpt lat="42.89868" lon="1.31096">
        <ele>583.1</ele>
        <time>2020-08-31T09:41:40Z</time>
      </trkpt>
      <trkpt lat="42.89902" lon="1.30942">
        <ele>582.2</ele>
        <time>2020-08-31T09:42:00Z</time>
      </trkpt>
      <trkpt lat="42.8997" lon="1.30825">
        <ele>581.7</ele>
        <time>2020-08-31T09:42:20Z</time>
      </trkpt>
      <trkpt lat="42.89986" lon="1.30686">
        <ele>581.5</ele>
        <time>2020-08-31T09:42:40Z</time>
      </trkpt>
      <trkpt lat="42.90019" lon="1.30548">
        <ele>581.1</ele>
        <time>2020-08-31T09:43:00Z</time>
      </trkpt>
      <trkpt lat="42.90009" lon="1.30411">
        <ele>578.9</ele>
        <time>2020-08-31T09:43:20Z</time>
      </trkpt>
      <trkpt lat="42.90043" lon="1.30276">
        <ele>578.7</ele>
        <time>2020-08-31T09:43:40Z</time>
      </trkpt>
      <trkpt lat="42.90101" lon="1.30156">
        <ele>580.2</ele>
        <time>2020-08-31T09:44:00Z</time>
      </trkpt>
      <trkpt lat="42.90138" lon="1.30001">
        <ele>578.9</ele>
        <time>2020-08-31T09:44:20Z</time>
      </trkpt>
      <trkpt lat="42.90164" lon="1.29877">
        <ele>576.7</ele>
        <time>2020-08-31T09:44:35Z</time>
      </trkpt>
      <trkpt lat="42.902" lon="1.29749">
        <ele>572.5</ele>
        <time>2020-08-31T09:44:50Z</time>
      </trkpt>
      <trkpt lat="42.90267" lon="1.29644">
        <ele>572.3</ele>
        <time>2020-08-31T09:45:10Z</time>
      </trkpt>
      <trkpt lat="42.90327" lon="1.29547">
        <ele>573.6</ele>
        <time>2020-08-31T09:45:30Z</time>
      </trkpt>
      <trkpt lat="42.90367" lon="1.29399">
        <ele>571.2</ele>
        <time>2020-08-31T09:45:50Z</time>
      </trkpt>
      <trkpt lat="42.90334" lon="1.29274">
        <ele>569.4</ele>
        <time>2020-08-31T09:46:05Z</time>
      </trkpt>
      <trkpt lat="42.90378" lon="1.29165">
        <ele>571.6</ele>
        <time>2020-08-31T09:46:25Z</time>
      </trkpt>
      <trkpt lat="42.90488" lon="1.29209">
        <ele>569.4</ele>
        <time>2020-08-31T09:46:45Z</time>
      </trkpt>
      <trkpt lat="42.90594" lon="1.2922">
        <ele>570.1</ele>
        <time>2020-08-31T09:47:05Z</time>
      </trkpt>
      <trkpt lat="42.90695" lon="1.29243">
        <ele>571.2</ele>
        <time>2020-08-31T09:47:25Z</time>
      </trkpt>
      <trkpt lat="42.90796" lon="1.29194">
        <ele>572.1</ele>
        <time>2020-08-31T09:47:45Z</time>
      </trkpt>
      <trkpt lat="42.9086" lon="1.29091">
        <ele>567.5</ele>
        <time>2020-08-31T09:48:00Z</time>
      </trkpt>
      <trkpt lat="42.9089" lon="1.28963">
        <ele>566.1</ele>
        <time>2020-08-31T09:48:15Z</time>
      </trkpt>
      <trkpt lat="42.90938" lon="1.28815">
        <ele>562.2</ele>
        <time>2020-08-31T09:48:35Z</time>
      </trkpt>
      <trkpt lat="42.90985" lon="1.28672">
        <ele>559.5</ele>
        <time>2020-08-31T09:48:55Z</time>
      </trkpt>
      <trkpt lat="42.91028" lon="1.28525">
        <ele>558.2</ele>
        <time>2020-08-31T09:49:15Z</time>
      </trkpt>
      <trkpt lat="42.91044" lon="1.2838">
        <ele>557.4</ele>
        <time>2020-08-31T09:49:35Z</time>
      </trkpt>
      <trkpt lat="42.9106" lon="1.28242">
        <ele>559.1</ele>
        <time>2020-08-31T09:49:55Z</time>
      </trkpt>
      <trkpt lat="42.91029" lon="1.28126">
        <ele>559.9</ele>
        <time>2020-08-31T09:50:15Z</time>
      </trkpt>
      <trkpt lat="42.90925" lon="1.28103">
        <ele>556.8</ele>
        <time>2020-08-31T09:50:35Z</time>
      </trkpt>
      <trkpt lat="42.90805" lon="1.28079">
        <ele>549.9</ele>
        <time>2020-08-31T09:50:55Z</time>
      </trkpt>
      <trkpt lat="42.9078" lon="1.27957">
        <ele>552.1</ele>
        <time>2020-08-31T09:51:15Z</time>
      </trkpt>
      <trkpt lat="42.90844" lon="1.27819">
        <ele>554.2</ele>
        <time>2020-08-31T09:51:35Z</time>
      </trkpt>
      <trkpt lat="42.90895" lon="1.27688">
        <ele>554.8</ele>
        <time>2020-08-31T09:51:50Z</time>
      </trkpt>
      <trkpt lat="42.90862" lon="1.27561">
        <ele>549.4</ele>
        <time>2020-08-31T09:52:10Z</time>
      </trkpt>
      <trkpt lat="42.90789" lon="1.27474">
        <ele>550.8</ele>
        <time>2020-08-31T09:52:30Z</time>
      </trkpt>
      <trkpt lat="42.90847" lon="1.27359">
        <ele>555.2</ele>
        <time>2020-08-31T09:52:50Z</time>
      </trkpt>
      <trkpt lat="42.90843" lon="1.27234">
        <ele>551.8</ele>
        <time>2020-08-31T09:53:05Z</time>
      </trkpt>
      <trkpt lat="42.90927" lon="1.27185">
        <ele>549.4</ele>
        <time>2020-08-31T09:53:20Z</time>
      </trkpt>
      <trkpt lat="42.91023" lon="1.27181">
        <ele>546.9</ele>
        <time>2020-08-31T09:53:35Z</time>
      </trkpt>
      <trkpt lat="42.9108" lon="1.27045">
        <ele>542.7</ele>
        <time>2020-08-31T09:53:55Z</time>
      </trkpt>
      <trkpt lat="42.91132" lon="1.26924">
        <ele>541.5</ele>
        <time>2020-08-31T09:54:15Z</time>
      </trkpt>
      <trkpt lat="42.91226" lon="1.26837">
        <ele>537.2</ele>
        <time>2020-08-31T09:54:35Z</time>
      </trkpt>
      <trkpt lat="42.9129" lon="1.26745">
        <ele>536.6</ele>
        <time>2020-08-31T09:54:50Z</time>
      </trkpt>
      <trkpt lat="42.91384" lon="1.26658">
        <ele>537.5</ele>
        <time>2020-08-31T09:55:10Z</time>
      </trkpt>
      <trkpt lat="42.91475" lon="1.26569">
        <ele>537.2</ele>
        <time>2020-08-31T09:55:30Z</time>
      </trkpt>
      <trkpt lat="42.91533" lon="1.26452">
        <ele>536</ele>
        <time>2020-08-31T09:55:50Z</time>
      </trkpt>
      <trkpt lat="42.91427" lon="1.26418">
        <ele>530.8</ele>
        <time>2020-08-31T09:56:15Z</time>
      </trkpt>
      <trkpt lat="42.91339" lon="1.26342">
        <ele>526</ele>
        <time>2020-08-31T09:56:35Z</time>
      </trkpt>
      <trkpt lat="42.91382" lon="1.26201">
        <ele>528.7</ele>
        <time>2020-08-31T09:56:55Z</time>
      </trkpt>
      <trkpt lat="42.91382" lon="1.26057">
        <ele>528.4</ele>
        <time>2020-08-31T09:57:15Z</time>
      </trkpt>
      <trkpt lat="42.91401" lon="1.25926">
        <ele>527.1</ele>
        <time>2020-08-31T09:57:35Z</time>
      </trkpt>
      <trkpt lat="42.91398" lon="1.2579">
        <ele>523</ele>
        <time>2020-08-31T09:57:55Z</time>
      </trkpt>
      <trkpt lat="42.91366" lon="1.25653">
        <ele>523.5</ele>
        <time>2020-08-31T09:58:15Z</time>
      </trkpt>
      <trkpt lat="42.91352" lon="1.2553">
        <ele>523.4</ele>
        <time>2020-08-31T09:58:40Z</time>
      </trkpt>
      <trkpt lat="42.91283" lon="1.25445">
        <ele>518.4</ele>
        <time>2020-08-31T09:59:05Z</time>
      </trkpt>
      <trkpt lat="42.91182" lon="1.25472">
        <ele>520.5</ele>
        <time>2020-08-31T09:59:30Z</time>
      </trkpt>
      <trkpt lat="42.91145" lon="1.25325">
        <ele>520.7</ele>
        <time>2020-08-31T09:59:50Z</time>
      </trkpt>
      <trkpt lat="42.91075" lon="1.25239">
        <ele>518.9</ele>
        <time>2020-08-31T10:00:05Z</time>
      </trkpt>
      <trkpt lat="42.91007" lon="1.25142">
        <ele>519.1</ele>
        <time>2020-08-31T10:00:20Z</time>
      </trkpt>
      <trkpt lat="42.90913" lon="1.25057">
        <ele>516.3</ele>
        <time>2020-08-31T10:00:35Z</time>
      </trkpt>
      <trkpt lat="42.90828" lon="1.24969">
        <ele>515.3</ele>
        <time>2020-08-31T10:00:50Z</time>
      </trkpt>
      <trkpt lat="42.90731" lon="1.24916">
        <ele>510.7</ele>
        <time>2020-08-31T10:01:05Z</time>
      </trkpt>
      <trkpt lat="42.9064" lon="1.24924">
        <ele>506.8</ele>
        <time>2020-08-31T10:01:20Z</time>
      </trkpt>
      <trkpt lat="42.90564" lon="1.24851">
        <ele>505.1</ele>
        <time>2020-08-31T10:01:45Z</time>
      </trkpt>
      <trkpt lat="42.90518" lon="1.24696">
        <ele>498.8</ele>
        <time>2020-08-31T10:02:04Z</time>
      </trkpt>
      <trkpt lat="42.90485" lon="1.2457">
        <ele>500.8</ele>
        <time>2020-08-31T10:02:24Z</time>
      </trkpt>
      <trkpt lat="42.90456" lon="1.24452">
        <ele>500.3</ele>
        <time>2020-08-31T10:02:54Z</time>
      </trkpt>
      <trkpt lat="42.90418" lon="1.24338">
        <ele>498.8</ele>
        <time>2020-08-31T10:03:24Z</time>
      </trkpt>
      <trkpt lat="42.90349" lon="1.24257">
        <ele>493.8</ele>
        <time>2020-08-31T10:03:49Z</time>
      </trkpt>
      <trkpt lat="42.90261" lon="1.24218">
        <ele>492.1</ele>
        <time>2020-08-31T10:04:04Z</time>
      </trkpt>
      <trkpt lat="42.90177" lon="1.24145">
        <ele>492.3</ele>
        <time>2020-08-31T10:04:19Z</time>
      </trkpt>
      <trkpt lat="42.90142" lon="1.2401">
        <ele>494.2</ele>
        <time>2020-08-31T10:04:39Z</time>
      </trkpt>
      <trkpt lat="42.90206" lon="1.23891">
        <ele>492.2</ele>
        <time>2020-08-31T10:05:04Z</time>
      </trkpt>
      <trkpt lat="42.90235" lon="1.23768">
        <ele>492.5</ele>
        <time>2020-08-31T10:05:19Z</time>
      </trkpt>
      <trkpt lat="42.9017" lon="1.23656">
        <ele>490</ele>
        <time>2020-08-31T10:05:34Z</time>
      </trkpt>
      <trkpt lat="42.90089" lon="1.2356">
        <ele>491</ele>
        <time>2020-08-31T10:05:49Z</time>
      </trkpt>
      <trkpt lat="42.90027" lon="1.23464">
        <ele>493.9</ele>
        <time>2020-08-31T10:06:04Z</time>
      </trkpt>
      <trkpt lat="42.89966" lon="1.23328">
        <ele>490.8</ele>
        <time>2020-08-31T10:06:24Z</time>
      </trkpt>
      <trkpt lat="42.89916" lon="1.23193">
        <ele>485.9</ele>
        <time>2020-08-31T10:06:44Z</time>
      </trkpt>
      <trkpt lat="42.89937" lon="1.23053">
        <ele>482.6</ele>
        <time>2020-08-31T10:07:04Z</time>
      </trkpt>
      <trkpt lat="42.9003" lon="1.22961">
        <ele>483.5</ele>
        <time>2020-08-31T10:07:24Z</time>
      </trkpt>
      <trkpt lat="42.90123" lon="1.22946">
        <ele>485.2</ele>
        <time>2020-08-31T10:07:39Z</time>
      </trkpt>
      <trkpt lat="42.90134" lon="1.22807">
        <ele>484.9</ele>
        <time>2020-08-31T10:07:59Z</time>
      </trkpt>
      <trkpt lat="42.90093" lon="1.22654">
        <ele>482.4</ele>
        <time>2020-08-31T10:08:19Z</time>
      </trkpt>
      <trkpt lat="42.90092" lon="1.22528">
        <ele>481.1</ele>
        <time>2020-08-31T10:08:34Z</time>
      </trkpt>
      <trkpt lat="42.90166" lon="1.22406">
        <ele>481.1</ele>
        <time>2020-08-31T10:08:54Z</time>
      </trkpt>
      <trkpt lat="42.90243" lon="1.22288">
        <ele>479.7</ele>
        <time>2020-08-31T10:09:14Z</time>
      </trkpt>
      <trkpt lat="42.90325" lon="1.22181">
        <ele>478.3</ele>
        <time>2020-08-31T10:09:34Z</time>
      </trkpt>
      <trkpt lat="42.90406" lon="1.22083">
        <ele>475.4</ele>
        <time>2020-08-31T10:09:54Z</time>
      </trkpt>
      <trkpt lat="42.9049" lon="1.21994">
        <ele>472.6</ele>
        <time>2020-08-31T10:10:14Z</time>
      </trkpt>
      <trkpt lat="42.90594" lon="1.21913">
        <ele>472.4</ele>
        <time>2020-08-31T10:10:34Z</time>
      </trkpt>
      <trkpt lat="42.90691" lon="1.21844">
        <ele>474</ele>
        <time>2020-08-31T10:10:54Z</time>
      </trkpt>
      <trkpt lat="42.9077" lon="1.2175">
        <ele>470.6</ele>
        <time>2020-08-31T10:11:14Z</time>
      </trkpt>
      <trkpt lat="42.90832" lon="1.21648">
        <ele>468.9</ele>
        <time>2020-08-31T10:11:34Z</time>
      </trkpt>
      <trkpt lat="42.90881" lon="1.21539">
        <ele>469.7</ele>
        <time>2020-08-31T10:12:13Z</time>
      </trkpt>
      <trkpt lat="42.90927" lon="1.21432">
        <ele>470.9</ele>
        <time>2020-08-31T10:12:38Z</time>
      </trkpt>
      <trkpt lat="42.9099" lon="1.21345">
        <ele>471.3</ele>
        <time>2020-08-31T10:12:58Z</time>
      </trkpt>
      <trkpt lat="42.91029" lon="1.21214">
        <ele>470.7</ele>
        <time>2020-08-31T10:13:13Z</time>
      </trkpt>
      <trkpt lat="42.91043" lon="1.21075">
        <ele>468.9</ele>
        <time>2020-08-31T10:13:28Z</time>
      </trkpt>
      <trkpt lat="42.91076" lon="1.2094">
        <ele>464.5</ele>
        <time>2020-08-31T10:13:48Z</time>
      </trkpt>
      <trkpt lat="42.91144" lon="1.20815">
        <ele>468.9</ele>
        <time>2020-08-31T10:14:08Z</time>
      </trkpt>
      <trkpt lat="42.91189" lon="1.20705">
        <ele>467.2</ele>
        <time>2020-08-31T10:14:23Z</time>
      </trkpt>
      <trkpt lat="42.91241" lon="1.20583">
        <ele>466.1</ele>
        <time>2020-08-31T10:14:43Z</time>
      </trkpt>
      <trkpt lat="42.91318" lon="1.20485">
        <ele>466.2</ele>
        <time>2020-08-31T10:15:03Z</time>
      </trkpt>
      <trkpt lat="42.91407" lon="1.20433">
        <ele>462.6</ele>
        <time>2020-08-31T10:15:23Z</time>
      </trkpt>
      <trkpt lat="42.91498" lon="1.20345">
        <ele>464.6</ele>
        <time>2020-08-31T10:15:48Z</time>
      </trkpt>
      <trkpt lat="42.91527" lon="1.20212">
        <ele>463.9</ele>
        <time>2020-08-31T10:16:08Z</time>
      </trkpt>
      <trkpt lat="42.91483" lon="1.20074">
        <ele>460.9</ele>
        <time>2020-08-31T10:16:28Z</time>
      </trkpt>
      <trkpt lat="42.91413" lon="1.19954">
        <ele>459.1</ele>
        <time>2020-08-31T10:16:48Z</time>
      </trkpt>
      <trkpt lat="42.91357" lon="1.19816">
        <ele>459.1</ele>
        <time>2020-08-31T10:17:08Z</time>
      </trkpt>
      <trkpt lat="42.91329" lon="1.19676">
        <ele>460.7</ele>
        <time>2020-08-31T10:17:28Z</time>
      </trkpt>
      <trkpt lat="42.91325" lon="1.19522">
        <ele>456.8</ele>
        <time>2020-08-31T10:17:48Z</time>
      </trkpt>
      <trkpt lat="42.91336" lon="1.19361">
        <ele>449.1</ele>
        <time>2020-08-31T10:18:08Z</time>
      </trkpt>
      <trkpt lat="42.91382" lon="1.19233">
        <ele>445.4</ele>
        <time>2020-08-31T10:18:28Z</time>
      </trkpt>
      <trkpt lat="42.91447" lon="1.19142">
        <ele>446</ele>
        <time>2020-08-31T10:18:48Z</time>
      </trkpt>
      <trkpt lat="42.91556" lon="1.19135">
        <ele>447.5</ele>
        <time>2020-08-31T10:19:08Z</time>
      </trkpt>
      <trkpt lat="42.91642" lon="1.19181">
        <ele>447.3</ele>
        <time>2020-08-31T10:19:23Z</time>
      </trkpt>
      <trkpt lat="42.9174" lon="1.19226">
        <ele>448.1</ele>
        <time>2020-08-31T10:19:43Z</time>
      </trkpt>
      <trkpt lat="42.91808" lon="1.19114">
        <ele>448.7</ele>
        <time>2020-08-31T10:20:03Z</time>
      </trkpt>
      <trkpt lat="42.91846" lon="1.18981">
        <ele>448.2</ele>
        <time>2020-08-31T10:20:23Z</time>
      </trkpt>
      <trkpt lat="42.91924" lon="1.18884">
        <ele>448.1</ele>
        <time>2020-08-31T10:20:43Z</time>
      </trkpt>
      <trkpt lat="42.92022" lon="1.18859">
        <ele>449.9</ele>
        <time>2020-08-31T10:21:03Z</time>
      </trkpt>
      <trkpt lat="42.92122" lon="1.18804">
        <ele>448.9</ele>
        <time>2020-08-31T10:21:23Z</time>
      </trkpt>
      <trkpt lat="42.92226" lon="1.18734">
        <ele>445.9</ele>
        <time>2020-08-31T10:21:43Z</time>
      </trkpt>
      <trkpt lat="42.92316" lon="1.18645">
        <ele>445.6</ele>
        <time>2020-08-31T10:22:03Z</time>
      </trkpt>
      <trkpt lat="42.92356" lon="1.18518">
        <ele>445.6</ele>
        <time>2020-08-31T10:22:23Z</time>
      </trkpt>
      <trkpt lat="42.92378" lon="1.1838">
        <ele>451.5</ele>
        <time>2020-08-31T10:22:43Z</time>
      </trkpt>
      <trkpt lat="42.92459" lon="1.18313">
        <ele>452.6</ele>
        <time>2020-08-31T10:23:03Z</time>
      </trkpt>
      <trkpt lat="42.92569" lon="1.18356">
        <ele>450.5</ele>
        <time>2020-08-31T10:23:23Z</time>
      </trkpt>
      <trkpt lat="42.92664" lon="1.18405">
        <ele>446.5</ele>
        <time>2020-08-31T10:23:43Z</time>
      </trkpt>
      <trkpt lat="42.92761" lon="1.18394">
        <ele>446.1</ele>
        <time>2020-08-31T10:24:03Z</time>
      </trkpt>
      <trkpt lat="42.92861" lon="1.1835">
        <ele>443.8</ele>
        <time>2020-08-31T10:24:23Z</time>
      </trkpt>
      <trkpt lat="42.92949" lon="1.18278">
        <ele>442.6</ele>
        <time>2020-08-31T10:24:43Z</time>
      </trkpt>
      <trkpt lat="42.92987" lon="1.18165">
        <ele>442.9</ele>
        <time>2020-08-31T10:25:03Z</time>
      </trkpt>
      <trkpt lat="42.9303" lon="1.18036">
        <ele>443.7</ele>
        <time>2020-08-31T10:25:23Z</time>
      </trkpt>
      <trkpt lat="42.93107" lon="1.17953">
        <ele>444.5</ele>
        <time>2020-08-31T10:25:48Z</time>
      </trkpt>
      <trkpt lat="42.93174" lon="1.17843">
        <ele>445.4</ele>
        <time>2020-08-31T10:26:13Z</time>
      </trkpt>
      <trkpt lat="42.93257" lon="1.17739">
        <ele>445.3</ele>
        <time>2020-08-31T10:26:33Z</time>
      </trkpt>
      <trkpt lat="42.93369" lon="1.17715">
        <ele>444.1</ele>
        <time>2020-08-31T10:26:48Z</time>
      </trkpt>
      <trkpt lat="42.93462" lon="1.17713">
        <ele>443.7</ele>
        <time>2020-08-31T10:27:03Z</time>
      </trkpt>
      <trkpt lat="42.93555" lon="1.1772">
        <ele>442.8</ele>
        <time>2020-08-31T10:27:23Z</time>
      </trkpt>
      <trkpt lat="42.93663" lon="1.17686">
        <ele>444</ele>
        <time>2020-08-31T10:27:53Z</time>
      </trkpt>
      <trkpt lat="42.93766" lon="1.1762">
        <ele>446.9</ele>
        <time>2020-08-31T10:28:13Z</time>
      </trkpt>
      <trkpt lat="42.93855" lon="1.17559">
        <ele>444.7</ele>
        <time>2020-08-31T10:28:28Z</time>
      </trkpt>
      <trkpt lat="42.93945" lon="1.17609">
        <ele>441.7</ele>
        <time>2020-08-31T10:28:43Z</time>
      </trkpt>
      <trkpt lat="42.94036" lon="1.17684">
        <ele>437.2</ele>
        <time>2020-08-31T10:29:02Z</time>
      </trkpt>
      <trkpt lat="42.94129" lon="1.17645">
        <ele>436.4</ele>
        <time>2020-08-31T10:29:27Z</time>
      </trkpt>
      <trkpt lat="42.94201" lon="1.1755">
        <ele>429.7</ele>
        <time>2020-08-31T10:29:47Z</time>
      </trkpt>
      <trkpt lat="42.9428" lon="1.1745">
        <ele>428.2</ele>
        <time>2020-08-31T10:30:07Z</time>
      </trkpt>
      <trkpt lat="42.94336" lon="1.17329">
        <ele>427.7</ele>
        <time>2020-08-31T10:30:27Z</time>
      </trkpt>
      <trkpt lat="42.94282" lon="1.17451">
        <ele>426.9</ele>
        <time>2020-08-31T10:31:33Z</time>
      </trkpt>
      <trkpt lat="42.94378" lon="1.17436">
        <ele>426.9</ele>
        <time>2020-08-31T10:32:08Z</time>
      </trkpt>
      <trkpt lat="42.94452" lon="1.17356">
        <ele>426.8</ele>
        <time>2020-08-31T10:32:28Z</time>
      </trkpt>
      <trkpt lat="42.94555" lon="1.17321">
        <ele>426.9</ele>
        <time>2020-08-31T10:32:48Z</time>
      </trkpt>
      <trkpt lat="42.94648" lon="1.17328">
        <ele>426.4</ele>
        <time>2020-08-31T10:33:08Z</time>
      </trkpt>
      <trkpt lat="42.94756" lon="1.17361">
        <ele>425.9</ele>
        <time>2020-08-31T10:33:50Z</time>
      </trkpt>
      <trkpt lat="42.94854" lon="1.17432">
        <ele>425.6</ele>
        <time>2020-08-31T10:34:15Z</time>
      </trkpt>
      <trkpt lat="42.9496" lon="1.17501">
        <ele>425.4</ele>
        <time>2020-08-31T10:34:35Z</time>
      </trkpt>
      <trkpt lat="42.9506" lon="1.17545">
        <ele>423.6</ele>
        <time>2020-08-31T10:34:50Z</time>
      </trkpt>
      <trkpt lat="42.95129" lon="1.17646">
        <ele>423.1</ele>
        <time>2020-08-31T10:35:05Z</time>
      </trkpt>
      <trkpt lat="42.95228" lon="1.17695">
        <ele>423.7</ele>
        <time>2020-08-31T10:35:25Z</time>
      </trkpt>
      <trkpt lat="42.95335" lon="1.17693">
        <ele>436.3</ele>
        <time>2020-08-31T10:35:45Z</time>
      </trkpt>
      <trkpt lat="42.95428" lon="1.17705">
        <ele>429.5</ele>
        <time>2020-08-31T10:36:00Z</time>
      </trkpt>
      <trkpt lat="42.95519" lon="1.17707">
        <ele>419.4</ele>
        <time>2020-08-31T10:36:20Z</time>
      </trkpt>
      <trkpt lat="42.95617" lon="1.17691">
        <ele>417</ele>
        <time>2020-08-31T10:36:40Z</time>
      </trkpt>
      <trkpt lat="42.95719" lon="1.17642">
        <ele>414.8</ele>
        <time>2020-08-31T10:37:05Z</time>
      </trkpt>
      <trkpt lat="42.95807" lon="1.17609">
        <ele>414.6</ele>
        <time>2020-08-31T10:37:20Z</time>
      </trkpt>
      <trkpt lat="42.95918" lon="1.17569">
        <ele>414.9</ele>
        <time>2020-08-31T10:37:40Z</time>
      </trkpt>
      <trkpt lat="42.96008" lon="1.17538">
        <ele>415</ele>
        <time>2020-08-31T10:38:00Z</time>
      </trkpt>
      <trkpt lat="42.96102" lon="1.17524">
        <ele>414.7</ele>
        <time>2020-08-31T10:38:20Z</time>
      </trkpt>
      <trkpt lat="42.96189" lon="1.1747">
        <ele>414.2</ele>
        <time>2020-08-31T10:38:40Z</time>
      </trkpt>
      <trkpt lat="42.96271" lon="1.17401">
        <ele>414.1</ele>
        <time>2020-08-31T10:39:00Z</time>
      </trkpt>
      <trkpt lat="42.96346" lon="1.173">
        <ele>413.8</ele>
        <time>2020-08-31T10:39:20Z</time>
      </trkpt>
      <trkpt lat="42.96418" lon="1.172">
        <ele>413.5</ele>
        <time>2020-08-31T10:39:40Z</time>
      </trkpt>
      <trkpt lat="42.96491" lon="1.17124">
        <ele>413.1</ele>
        <time>2020-08-31T10:40:00Z</time>
      </trkpt>
      <trkpt lat="42.96582" lon="1.17054">
        <ele>412.8</ele>
        <time>2020-08-31T10:40:25Z</time>
      </trkpt>
      <trkpt lat="42.96662" lon="1.16996">
        <ele>412.6</ele>
        <time>2020-08-31T10:40:45Z</time>
      </trkpt>
      <trkpt lat="42.96754" lon="1.1693">
        <ele>412.3</ele>
        <time>2020-08-31T10:41:05Z</time>
      </trkpt>
      <trkpt lat="42.96841" lon="1.16838">
        <ele>411.7</ele>
        <time>2020-08-31T10:41:25Z</time>
      </trkpt>
      <trkpt lat="42.96925" lon="1.16742">
        <ele>411.2</ele>
        <time>2020-08-31T10:41:45Z</time>
      </trkpt>
      <trkpt lat="42.97002" lon="1.16653">
        <ele>410.8</ele>
        <time>2020-08-31T10:42:05Z</time>
      </trkpt>
      <trkpt lat="42.97079" lon="1.16563">
        <ele>410.4</ele>
        <time>2020-08-31T10:42:25Z</time>
      </trkpt>
      <trkpt lat="42.97161" lon="1.1648">
        <ele>409.8</ele>
        <time>2020-08-31T10:42:45Z</time>
      </trkpt>
      <trkpt lat="42.9725" lon="1.16406">
        <ele>409.3</ele>
        <time>2020-08-31T10:43:05Z</time>
      </trkpt>
      <trkpt lat="42.97334" lon="1.16335">
        <ele>409.1</ele>
        <time>2020-08-31T10:43:25Z</time>
      </trkpt>
      <trkpt lat="42.9741" lon="1.16253">
        <ele>408.8</ele>
        <time>2020-08-31T10:43:45Z</time>
      </trkpt>
      <trkpt lat="42.9749" lon="1.16162">
        <ele>408.4</ele>
        <time>2020-08-31T10:44:05Z</time>
      </trkpt>
      <trkpt lat="42.97565" lon="1.16056">
        <ele>408</ele>
        <time>2020-08-31T10:44:25Z</time>
      </trkpt>
      <trkpt lat="42.97605" lon="1.15918">
        <ele>407.4</ele>
        <time>2020-08-31T10:44:45Z</time>
      </trkpt>
      <trkpt lat="42.97633" lon="1.15776">
        <ele>407</ele>
        <time>2020-08-31T10:45:05Z</time>
      </trkpt>
      <trkpt lat="42.97654" lon="1.15635">
        <ele>406.6</ele>
        <time>2020-08-31T10:45:25Z</time>
      </trkpt>
      <trkpt lat="42.97695" lon="1.15517">
        <ele>406.4</ele>
        <time>2020-08-31T10:45:45Z</time>
      </trkpt>
      <trkpt lat="42.9777" lon="1.15423">
        <ele>406</ele>
        <time>2020-08-31T10:46:05Z</time>
      </trkpt>
      <trkpt lat="42.9785" lon="1.1534">
        <ele>405.5</ele>
        <time>2020-08-31T10:46:25Z</time>
      </trkpt>
      <trkpt lat="42.97928" lon="1.15258">
        <ele>405.2</ele>
        <time>2020-08-31T10:46:45Z</time>
      </trkpt>
      <trkpt lat="42.98006" lon="1.1518">
        <ele>404.7</ele>
        <time>2020-08-31T10:47:05Z</time>
      </trkpt>
      <trkpt lat="42.98079" lon="1.15099">
        <ele>404.2</ele>
        <time>2020-08-31T10:47:25Z</time>
      </trkpt>
      <trkpt lat="42.9815" lon="1.15016">
        <ele>403.5</ele>
        <time>2020-08-31T10:48:02Z</time>
      </trkpt>
      <trkpt lat="42.98219" lon="1.1493">
        <ele>402.9</ele>
        <time>2020-08-31T10:48:22Z</time>
      </trkpt>
      <trkpt lat="42.98298" lon="1.14846">
        <ele>402.5</ele>
        <time>2020-08-31T10:48:42Z</time>
      </trkpt>
      <trkpt lat="42.98387" lon="1.14802">
        <ele>402.1</ele>
        <time>2020-08-31T10:49:02Z</time>
      </trkpt>
      <trkpt lat="42.98472" lon="1.14751">
        <ele>401.7</ele>
        <time>2020-08-31T10:49:22Z</time>
      </trkpt>
      <trkpt lat="42.98563" lon="1.14669">
        <ele>400.9</ele>
        <time>2020-08-31T10:49:47Z</time>
      </trkpt>
      <trkpt lat="42.986" lon="1.14525">
        <ele>400.3</ele>
        <time>2020-08-31T10:50:12Z</time>
      </trkpt>
      <trkpt lat="42.98639" lon="1.144">
        <ele>399.7</ele>
        <time>2020-08-31T10:50:47Z</time>
      </trkpt>
      <trkpt lat="42.98603" lon="1.14283">
        <ele>396.7</ele>
        <time>2020-08-31T11:58:45Z</time>
      </trkpt>
      <trkpt lat="42.98559" lon="1.14157">
        <ele>397.8</ele>
        <time>2020-08-31T11:59:10Z</time>
      </trkpt>
      <trkpt lat="42.98612" lon="1.1405">
        <ele>397.5</ele>
        <time>2020-08-31T11:59:40Z</time>
      </trkpt>
      <trkpt lat="42.98707" lon="1.14014">
        <ele>397.2</ele>
        <time>2020-08-31T12:00:05Z</time>
      </trkpt>
      <trkpt lat="42.98805" lon="1.13974">
        <ele>397</ele>
        <time>2020-08-31T12:00:25Z</time>
      </trkpt>
      <trkpt lat="42.98899" lon="1.1394">
        <ele>396.8</ele>
        <time>2020-08-31T12:00:45Z</time>
      </trkpt>
      <trkpt lat="42.99002" lon="1.13899">
        <ele>396.6</ele>
        <time>2020-08-31T12:01:05Z</time>
      </trkpt>
      <trkpt lat="42.99101" lon="1.1384">
        <ele>396.5</ele>
        <time>2020-08-31T12:01:25Z</time>
      </trkpt>
      <trkpt lat="42.99193" lon="1.13782">
        <ele>396.2</ele>
        <time>2020-08-31T12:01:45Z</time>
      </trkpt>
      <trkpt lat="42.99282" lon="1.13739">
        <ele>395.9</ele>
        <time>2020-08-31T12:02:05Z</time>
      </trkpt>
      <trkpt lat="42.99376" lon="1.13694">
        <ele>395.5</ele>
        <time>2020-08-31T12:02:30Z</time>
      </trkpt>
      <trkpt lat="42.99466" lon="1.13663">
        <ele>392.5</ele>
        <time>2020-08-31T12:07:32Z</time>
      </trkpt>
      <trkpt lat="42.99578" lon="1.13634">
        <ele>388.9</ele>
        <time>2020-08-31T12:08:05Z</time>
      </trkpt>
      <trkpt lat="42.99678" lon="1.13605">
        <ele>388.8</ele>
        <time>2020-08-31T12:08:24Z</time>
      </trkpt>
      <trkpt lat="42.99779" lon="1.13556">
        <ele>388.7</ele>
        <time>2020-08-31T12:08:44Z</time>
      </trkpt>
      <trkpt lat="42.99883" lon="1.13509">
        <ele>388.6</ele>
        <time>2020-08-31T12:09:04Z</time>
      </trkpt>
      <trkpt lat="42.99984" lon="1.1347">
        <ele>388.4</ele>
        <time>2020-08-31T12:09:24Z</time>
      </trkpt>
      <trkpt lat="43.00081" lon="1.13424">
        <ele>388.2</ele>
        <time>2020-08-31T12:09:49Z</time>
      </trkpt>
      <trkpt lat="43.00154" lon="1.13353">
        <ele>388.1</ele>
        <time>2020-08-31T12:10:14Z</time>
      </trkpt>
      <trkpt lat="43.0022" lon="1.1327">
        <ele>387.7</ele>
        <time>2020-08-31T12:11:29Z</time>
      </trkpt>
      <trkpt lat="43.00305" lon="1.13196">
        <ele>386.9</ele>
        <time>2020-08-31T12:11:49Z</time>
      </trkpt>
      <trkpt lat="43.00381" lon="1.13106">
        <ele>386.1</ele>
        <time>2020-08-31T12:12:14Z</time>
      </trkpt>
      <trkpt lat="43.00466" lon="1.13032">
        <ele>384</ele>
        <time>2020-08-31T12:12:39Z</time>
      </trkpt>
      <trkpt lat="43.00558" lon="1.12948">
        <ele>382.6</ele>
        <time>2020-08-31T12:13:04Z</time>
      </trkpt>
      <trkpt lat="43.00637" lon="1.12873">
        <ele>381.9</ele>
        <time>2020-08-31T12:13:30Z</time>
      </trkpt>
      <trkpt lat="43.00722" lon="1.12793">
        <ele>381.2</ele>
        <time>2020-08-31T12:14:25Z</time>
      </trkpt>
      <trkpt lat="43.00802" lon="1.12684">
        <ele>380.3</ele>
        <time>2020-08-31T12:14:50Z</time>
      </trkpt>
      <trkpt lat="43.00858" lon="1.12584">
        <ele>379.5</ele>
        <time>2020-08-31T12:15:10Z</time>
      </trkpt>
      <trkpt lat="43.00904" lon="1.12475">
        <ele>379</ele>
        <time>2020-08-31T12:15:30Z</time>
      </trkpt>
      <trkpt lat="43.00953" lon="1.12355">
        <ele>377.8</ele>
        <time>2020-08-31T12:15:50Z</time>
      </trkpt>
      <trkpt lat="43.01" lon="1.12235">
        <ele>377.3</ele>
        <time>2020-08-31T12:16:10Z</time>
      </trkpt>
      <trkpt lat="43.01045" lon="1.12126">
        <ele>377.5</ele>
        <time>2020-08-31T12:16:30Z</time>
      </trkpt>
      <trkpt lat="43.01096" lon="1.12004">
        <ele>376.3</ele>
        <time>2020-08-31T12:16:55Z</time>
      </trkpt>
      <trkpt lat="43.01155" lon="1.11885">
        <ele>375.3</ele>
        <time>2020-08-31T12:17:20Z</time>
      </trkpt>
      <trkpt lat="43.01224" lon="1.11766">
        <ele>374.8</ele>
        <time>2020-08-31T12:17:45Z</time>
      </trkpt>
      <trkpt lat="43.01295" lon="1.11649">
        <ele>374.2</ele>
        <time>2020-08-31T12:18:10Z</time>
      </trkpt>
      <trkpt lat="43.01358" lon="1.11562">
        <ele>373.4</ele>
        <time>2020-08-31T12:18:30Z</time>
      </trkpt>
      <trkpt lat="43.01426" lon="1.1148">
        <ele>372.7</ele>
        <time>2020-08-31T12:18:50Z</time>
      </trkpt>
      <trkpt lat="43.01513" lon="1.11387">
        <ele>372.2</ele>
        <time>2020-08-31T12:19:15Z</time>
      </trkpt>
      <trkpt lat="43.01587" lon="1.11302">
        <ele>372</ele>
        <time>2020-08-31T12:19:40Z</time>
      </trkpt>
      <trkpt lat="43.01664" lon="1.11218">
        <ele>372.1</ele>
        <time>2020-08-31T12:20:05Z</time>
      </trkpt>
      <trkpt lat="43.01746" lon="1.1113">
        <ele>371.7</ele>
        <time>2020-08-31T12:20:30Z</time>
      </trkpt>
      <trkpt lat="43.01829" lon="1.11037">
        <ele>371.3</ele>
        <time>2020-08-31T12:20:55Z</time>
      </trkpt>
      <trkpt lat="43.01918" lon="1.10944">
        <ele>370.9</ele>
        <time>2020-08-31T12:21:20Z</time>
      </trkpt>
      <trkpt lat="43.01988" lon="1.10867">
        <ele>370.6</ele>
        <time>2020-08-31T12:21:40Z</time>
      </trkpt>
      <trkpt lat="43.0206" lon="1.10787">
        <ele>370.3</ele>
        <time>2020-08-31T12:22:00Z</time>
      </trkpt>
      <trkpt lat="43.02144" lon="1.10697">
        <ele>370.2</ele>
        <time>2020-08-31T12:22:25Z</time>
      </trkpt>
      <trkpt lat="43.02215" lon="1.10612">
        <ele>370.3</ele>
        <time>2020-08-31T12:22:45Z</time>
      </trkpt>
      <trkpt lat="43.0229" lon="1.10502">
        <ele>370.1</ele>
        <time>2020-08-31T12:23:10Z</time>
      </trkpt>
      <trkpt lat="43.02356" lon="1.10375">
        <ele>369.9</ele>
        <time>2020-08-31T12:23:35Z</time>
      </trkpt>
      <trkpt lat="43.02406" lon="1.10266">
        <ele>369.5</ele>
        <time>2020-08-31T12:23:55Z</time>
      </trkpt>
      <trkpt lat="43.02448" lon="1.10124">
        <ele>369.1</ele>
        <time>2020-08-31T12:24:20Z</time>
      </trkpt>
      <trkpt lat="43.02478" lon="1.1">
        <ele>368.8</ele>
        <time>2020-08-31T12:24:40Z</time>
      </trkpt>
      <trkpt lat="43.02498" lon="1.0988">
        <ele>368.5</ele>
        <time>2020-08-31T12:25:00Z</time>
      </trkpt>
      <trkpt lat="43.02519" lon="1.09754">
        <ele>368.5</ele>
        <time>2020-08-31T12:25:20Z</time>
      </trkpt>
      <trkpt lat="43.02546" lon="1.09618">
        <ele>368.4</ele>
        <time>2020-08-31T12:25:40Z</time>
      </trkpt>
      <trkpt lat="43.02572" lon="1.09486">
        <ele>368.3</ele>
        <time>2020-08-31T12:26:00Z</time>
      </trkpt>
      <trkpt lat="43.0261" lon="1.09363">
        <ele>368.3</ele>
        <time>2020-08-31T12:26:20Z</time>
      </trkpt>
      <trkpt lat="43.02648" lon="1.09249">
        <ele>367.9</ele>
        <time>2020-08-31T12:26:40Z</time>
      </trkpt>
      <trkpt lat="43.02694" lon="1.09139">
        <ele>367.2</ele>
        <time>2020-08-31T12:27:00Z</time>
      </trkpt>
      <trkpt lat="43.02754" lon="1.09029">
        <ele>366.9</ele>
        <time>2020-08-31T12:27:20Z</time>
      </trkpt>
      <trkpt lat="43.02818" lon="1.08928">
        <ele>367</ele>
        <time>2020-08-31T12:27:40Z</time>
      </trkpt>
      <trkpt lat="43.02878" lon="1.08829">
        <ele>367</ele>
        <time>2020-08-31T12:28:00Z</time>
      </trkpt>
      <trkpt lat="43.02937" lon="1.08736">
        <ele>367.1</ele>
        <time>2020-08-31T12:28:20Z</time>
      </trkpt>
      <trkpt lat="43.02996" lon="1.08637">
        <ele>367.1</ele>
        <time>2020-08-31T12:28:40Z</time>
      </trkpt>
      <trkpt lat="43.03062" lon="1.0852">
        <ele>367.1</ele>
        <time>2020-08-31T12:29:05Z</time>
      </trkpt>
      <trkpt lat="43.0313" lon="1.08406">
        <ele>367.1</ele>
        <time>2020-08-31T12:29:30Z</time>
      </trkpt>
      <trkpt lat="43.0319" lon="1.08299">
        <ele>367.1</ele>
        <time>2020-08-31T12:29:55Z</time>
      </trkpt>
      <trkpt lat="43.03243" lon="1.08193">
        <ele>367.2</ele>
        <time>2020-08-31T12:30:15Z</time>
      </trkpt>
      <trkpt lat="43.03291" lon="1.08056">
        <ele>366.9</ele>
        <time>2020-08-31T12:30:40Z</time>
      </trkpt>
      <trkpt lat="43.03325" lon="1.0792">
        <ele>366.2</ele>
        <time>2020-08-31T12:31:05Z</time>
      </trkpt>
      <trkpt lat="43.03355" lon="1.07795">
        <ele>364.9</ele>
        <time>2020-08-31T12:31:25Z</time>
      </trkpt>
      <trkpt lat="43.03388" lon="1.0767">
        <ele>364</ele>
        <time>2020-08-31T12:31:45Z</time>
      </trkpt>
      <trkpt lat="43.03421" lon="1.07539">
        <ele>363.6</ele>
        <time>2020-08-31T12:32:05Z</time>
      </trkpt>
      <trkpt lat="43.03451" lon="1.07416">
        <ele>362.9</ele>
        <time>2020-08-31T12:32:25Z</time>
      </trkpt>
      <trkpt lat="43.03481" lon="1.0729">
        <ele>362</ele>
        <time>2020-08-31T12:32:44Z</time>
      </trkpt>
      <trkpt lat="43.0351" lon="1.0716">
        <ele>361.4</ele>
        <time>2020-08-31T12:33:04Z</time>
      </trkpt>
      <trkpt lat="43.0355" lon="1.07038">
        <ele>361</ele>
        <time>2020-08-31T12:33:24Z</time>
      </trkpt>
      <trkpt lat="43.03591" lon="1.06923">
        <ele>360.4</ele>
        <time>2020-08-31T12:33:44Z</time>
      </trkpt>
      <trkpt lat="43.03638" lon="1.06807">
        <ele>359.6</ele>
        <time>2020-08-31T12:34:04Z</time>
      </trkpt>
      <trkpt lat="43.03688" lon="1.06694">
        <ele>359</ele>
        <time>2020-08-31T12:34:24Z</time>
      </trkpt>
      <trkpt lat="43.03737" lon="1.06581">
        <ele>358.1</ele>
        <time>2020-08-31T12:34:44Z</time>
      </trkpt>
      <trkpt lat="43.03794" lon="1.0648">
        <ele>357.2</ele>
        <time>2020-08-31T12:35:04Z</time>
      </trkpt>
      <trkpt lat="43.03859" lon="1.06376">
        <ele>356.2</ele>
        <time>2020-08-31T12:35:29Z</time>
      </trkpt>
      <trkpt lat="43.03885" lon="1.06237">
        <ele>355.2</ele>
        <time>2020-08-31T12:35:49Z</time>
      </trkpt>
      <trkpt lat="43.0389" lon="1.06112">
        <ele>350.5</ele>
        <time>2020-08-31T12:43:01Z</time>
      </trkpt>
      <trkpt lat="43.03874" lon="1.05961">
        <ele>349</ele>
        <time>2020-08-31T12:43:26Z</time>
      </trkpt>
      <trkpt lat="43.03789" lon="1.05894">
        <ele>348.4</ele>
        <time>2020-08-31T12:43:51Z</time>
      </trkpt>
      <trkpt lat="43.03705" lon="1.05812">
        <ele>348.2</ele>
        <time>2020-08-31T12:44:32Z</time>
      </trkpt>
      <trkpt lat="43.03632" lon="1.05714">
        <ele>347.7</ele>
        <time>2020-08-31T12:44:57Z</time>
      </trkpt>
      <trkpt lat="43.0357" lon="1.05591">
        <ele>347.3</ele>
        <time>2020-08-31T12:45:17Z</time>
      </trkpt>
      <trkpt lat="43.03546" lon="1.0544">
        <ele>346.9</ele>
        <time>2020-08-31T12:45:37Z</time>
      </trkpt>
      <trkpt lat="43.03527" lon="1.05306">
        <ele>346.4</ele>
        <time>2020-08-31T12:45:57Z</time>
      </trkpt>
      <trkpt lat="43.03509" lon="1.05169">
        <ele>346</ele>
        <time>2020-08-31T12:46:17Z</time>
      </trkpt>
      <trkpt lat="43.03492" lon="1.05015">
        <ele>345.5</ele>
        <time>2020-08-31T12:46:37Z</time>
      </trkpt>
      <trkpt lat="43.03474" lon="1.04862">
        <ele>345</ele>
        <time>2020-08-31T12:46:57Z</time>
      </trkpt>
      <trkpt lat="43.03456" lon="1.04716">
        <ele>344.5</ele>
        <time>2020-08-31T12:47:17Z</time>
      </trkpt>
      <trkpt lat="43.0344" lon="1.0459">
        <ele>343.8</ele>
        <time>2020-08-31T12:47:37Z</time>
      </trkpt>
      <trkpt lat="43.03423" lon="1.0445">
        <ele>343</ele>
        <time>2020-08-31T12:48:02Z</time>
      </trkpt>
      <trkpt lat="43.03407" lon="1.04309">
        <ele>342.3</ele>
        <time>2020-08-31T12:48:27Z</time>
      </trkpt>
      <trkpt lat="43.03391" lon="1.04183">
        <ele>341.7</ele>
        <time>2020-08-31T12:48:47Z</time>
      </trkpt>
      <trkpt lat="43.03374" lon="1.04046">
        <ele>341.1</ele>
        <time>2020-08-31T12:49:07Z</time>
      </trkpt>
      <trkpt lat="43.03357" lon="1.03911">
        <ele>340.4</ele>
        <time>2020-08-31T12:49:27Z</time>
      </trkpt>
      <trkpt lat="43.03343" lon="1.03779">
        <ele>339.7</ele>
        <time>2020-08-31T12:49:47Z</time>
      </trkpt>
      <trkpt lat="43.03326" lon="1.03643">
        <ele>339.1</ele>
        <time>2020-08-31T12:50:07Z</time>
      </trkpt>
      <trkpt lat="43.0331" lon="1.03506">
        <ele>338.6</ele>
        <time>2020-08-31T12:50:32Z</time>
      </trkpt>
      <trkpt lat="43.03294" lon="1.03382">
        <ele>337.9</ele>
        <time>2020-08-31T12:50:52Z</time>
      </trkpt>
      <trkpt lat="43.03277" lon="1.03242">
        <ele>337.3</ele>
        <time>2020-08-31T12:51:12Z</time>
      </trkpt>
      <trkpt lat="43.03261" lon="1.03105">
        <ele>336.8</ele>
        <time>2020-08-31T12:51:32Z</time>
      </trkpt>
      <trkpt lat="43.03253" lon="1.02965">
        <ele>336.3</ele>
        <time>2020-08-31T12:51:57Z</time>
      </trkpt>
      <trkpt lat="43.0322" lon="1.02829">
        <ele>335.9</ele>
        <time>2020-08-31T12:52:22Z</time>
      </trkpt>
      <trkpt lat="43.03253" lon="1.02694">
        <ele>335.4</ele>
        <time>2020-08-31T12:52:57Z</time>
      </trkpt>
      <trkpt lat="43.03236" lon="1.02546">
        <ele>335.1</ele>
        <time>2020-08-31T12:53:22Z</time>
      </trkpt>
      <trkpt lat="43.03219" lon="1.02397">
        <ele>334.8</ele>
        <time>2020-08-31T12:53:47Z</time>
      </trkpt>
      <trkpt lat="43.032" lon="1.02247">
        <ele>334.6</ele>
        <time>2020-08-31T12:54:12Z</time>
      </trkpt>
      <trkpt lat="43.03184" lon="1.02102">
        <ele>334.3</ele>
        <time>2020-08-31T12:54:44Z</time>
      </trkpt>
      <trkpt lat="43.0317" lon="1.01967">
        <ele>334</ele>
        <time>2020-08-31T12:55:04Z</time>
      </trkpt>
      <trkpt lat="43.03159" lon="1.01826">
        <ele>333.7</ele>
        <time>2020-08-31T12:55:29Z</time>
      </trkpt>
      <trkpt lat="43.03164" lon="1.01687">
        <ele>333.2</ele>
        <time>2020-08-31T12:55:54Z</time>
      </trkpt>
      <trkpt lat="43.03116" lon="1.01575">
        <ele>332.9</ele>
        <time>2020-08-31T12:56:34Z</time>
      </trkpt>
      <trkpt lat="43.03153" lon="1.01452">
        <ele>332.1</ele>
        <time>2020-08-31T12:56:59Z</time>
      </trkpt>
      <trkpt lat="43.03169" lon="1.01312">
        <ele>331.7</ele>
        <time>2020-08-31T12:57:23Z</time>
      </trkpt>
      <trkpt lat="43.03191" lon="1.01171">
        <ele>331.4</ele>
        <time>2020-08-31T12:57:48Z</time>
      </trkpt>
      <trkpt lat="43.03209" lon="1.01022">
        <ele>331.2</ele>
        <time>2020-08-31T12:58:13Z</time>
      </trkpt>
      <trkpt lat="43.03227" lon="1.00888">
        <ele>330.8</ele>
        <time>2020-08-31T12:58:33Z</time>
      </trkpt>
      <trkpt lat="43.03247" lon="1.00748">
        <ele>330.4</ele>
        <time>2020-08-31T12:58:53Z</time>
      </trkpt>
      <trkpt lat="43.03266" lon="1.00608">
        <ele>330.1</ele>
        <time>2020-08-31T12:59:13Z</time>
      </trkpt>
      <trkpt lat="43.03282" lon="1.0048">
        <ele>329.8</ele>
        <time>2020-08-31T12:59:33Z</time>
      </trkpt>
      <trkpt lat="43.03264" lon="1.00334">
        <ele>329.6</ele>
        <time>2020-08-31T12:59:58Z</time>
      </trkpt>
      <trkpt lat="43.03211" lon="1.0021">
        <ele>329.4</ele>
        <time>2020-08-31T13:00:23Z</time>
      </trkpt>
      <trkpt lat="43.03226" lon="1.00074">
        <ele>329.3</ele>
        <time>2020-08-31T13:00:53Z</time>
      </trkpt>
      <trkpt lat="43.03275" lon="0.99967">
        <ele>329</ele>
        <time>2020-08-31T13:01:13Z</time>
      </trkpt>
      <trkpt lat="43.03332" lon="0.99865">
        <ele>328.2</ele>
        <time>2020-08-31T13:01:28Z</time>
      </trkpt>
      <trkpt lat="43.03397" lon="0.99773">
        <ele>327.1</ele>
        <time>2020-08-31T13:01:43Z</time>
      </trkpt>
      <trkpt lat="43.03462" lon="0.99688">
        <ele>325.9</ele>
        <time>2020-08-31T13:01:58Z</time>
      </trkpt>
      <trkpt lat="43.03543" lon="0.99589">
        <ele>323.5</ele>
        <time>2020-08-31T13:02:18Z</time>
      </trkpt>
      <trkpt lat="43.0362" lon="0.99501">
        <ele>323</ele>
        <time>2020-08-31T13:02:38Z</time>
      </trkpt>
      <trkpt lat="43.03709" lon="0.99415">
        <ele>325.2</ele>
        <time>2020-08-31T13:03:03Z</time>
      </trkpt>
      <trkpt lat="43.03814" lon="0.99424">
        <ele>325.3</ele>
        <time>2020-08-31T13:03:33Z</time>
      </trkpt>
      <trkpt lat="43.03906" lon="0.9945">
        <ele>326.2</ele>
        <time>2020-08-31T13:04:44Z</time>
      </trkpt>
      <trkpt lat="43.03997" lon="0.99406">
        <ele>324.8</ele>
        <time>2020-08-31T13:05:14Z</time>
      </trkpt>
      <trkpt lat="43.04087" lon="0.99346">
        <ele>322.5</ele>
        <time>2020-08-31T13:05:34Z</time>
      </trkpt>
      <trkpt lat="43.04176" lon="0.99263">
        <ele>320.8</ele>
        <time>2020-08-31T13:05:54Z</time>
      </trkpt>
      <trkpt lat="43.04255" lon="0.99181">
        <ele>320.4</ele>
        <time>2020-08-31T13:06:14Z</time>
      </trkpt>
      <trkpt lat="43.04344" lon="0.99098">
        <ele>318.9</ele>
        <time>2020-08-31T13:06:39Z</time>
      </trkpt>
      <trkpt lat="43.04417" lon="0.99026">
        <ele>317.8</ele>
        <time>2020-08-31T13:06:59Z</time>
      </trkpt>
      <trkpt lat="43.04498" lon="0.98945">
        <ele>316.9</ele>
        <time>2020-08-31T13:07:24Z</time>
      </trkpt>
      <trkpt lat="43.04581" lon="0.98866">
        <ele>315.8</ele>
        <time>2020-08-31T13:07:49Z</time>
      </trkpt>
      <trkpt lat="43.04654" lon="0.98794">
        <ele>315.6</ele>
        <time>2020-08-31T13:08:09Z</time>
      </trkpt>
      <trkpt lat="43.04726" lon="0.98716">
        <ele>315.3</ele>
        <time>2020-08-31T13:08:29Z</time>
      </trkpt>
      <trkpt lat="43.04799" lon="0.98644">
        <ele>315.1</ele>
        <time>2020-08-31T13:08:49Z</time>
      </trkpt>
      <trkpt lat="43.04884" lon="0.98563">
        <ele>315.1</ele>
        <time>2020-08-31T13:09:14Z</time>
      </trkpt>
      <trkpt lat="43.04972" lon="0.98475">
        <ele>315.1</ele>
        <time>2020-08-31T13:09:39Z</time>
      </trkpt>
      <trkpt lat="43.05058" lon="0.98409">
        <ele>314.7</ele>
        <time>2020-08-31T13:09:59Z</time>
      </trkpt>
      <trkpt lat="43.05148" lon="0.98354">
        <ele>314.4</ele>
        <time>2020-08-31T13:10:19Z</time>
      </trkpt>
      <trkpt lat="43.05238" lon="0.98305">
        <ele>314</ele>
        <time>2020-08-31T13:10:39Z</time>
      </trkpt>
      <trkpt lat="43.05334" lon="0.98265">
        <ele>313.6</ele>
        <time>2020-08-31T13:10:59Z</time>
      </trkpt>
      <trkpt lat="43.0543" lon="0.98223">
        <ele>313.2</ele>
        <time>2020-08-31T13:11:19Z</time>
      </trkpt>
      <trkpt lat="43.05517" lon="0.98184">
        <ele>313.1</ele>
        <time>2020-08-31T13:11:39Z</time>
      </trkpt>
      <trkpt lat="43.05601" lon="0.98136">
        <ele>312.2</ele>
        <time>2020-08-31T13:14:06Z</time>
      </trkpt>
      <trkpt lat="43.05698" lon="0.98094">
        <ele>311.7</ele>
        <time>2020-08-31T13:14:31Z</time>
      </trkpt>
      <trkpt lat="43.05794" lon="0.98052">
        <ele>311.5</ele>
        <time>2020-08-31T13:14:56Z</time>
      </trkpt>
      <trkpt lat="43.0589" lon="0.98011">
        <ele>311.1</ele>
        <time>2020-08-31T13:15:21Z</time>
      </trkpt>
      <trkpt lat="43.05986" lon="0.97961">
        <ele>310.9</ele>
        <time>2020-08-31T13:15:46Z</time>
      </trkpt>
      <trkpt lat="43.06091" lon="0.97902">
        <ele>310.8</ele>
        <time>2020-08-31T13:16:11Z</time>
      </trkpt>
      <trkpt lat="43.06177" lon="0.97843">
        <ele>310.6</ele>
        <time>2020-08-31T13:16:31Z</time>
      </trkpt>
      <trkpt lat="43.06264" lon="0.97775">
        <ele>310.3</ele>
        <time>2020-08-31T13:16:51Z</time>
      </trkpt>
      <trkpt lat="43.06347" lon="0.97699">
        <ele>309.4</ele>
        <time>2020-08-31T13:17:11Z</time>
      </trkpt>
      <trkpt lat="43.06431" lon="0.97621">
        <ele>309.2</ele>
        <time>2020-08-31T13:17:31Z</time>
      </trkpt>
      <trkpt lat="43.06504" lon="0.97536">
        <ele>308.8</ele>
        <time>2020-08-31T13:17:56Z</time>
      </trkpt>
      <trkpt lat="43.06586" lon="0.97436">
        <ele>307.9</ele>
        <time>2020-08-31T13:18:26Z</time>
      </trkpt>
      <trkpt lat="43.06657" lon="0.97347">
        <ele>307.5</ele>
        <time>2020-08-31T13:18:46Z</time>
      </trkpt>
      <trkpt lat="43.06726" lon="0.97258">
        <ele>307.1</ele>
        <time>2020-08-31T13:19:06Z</time>
      </trkpt>
      <trkpt lat="43.06798" lon="0.97161">
        <ele>306.6</ele>
        <time>2020-08-31T13:19:31Z</time>
      </trkpt>
      <trkpt lat="43.06872" lon="0.97066">
        <ele>306.1</ele>
        <time>2020-08-31T13:19:51Z</time>
      </trkpt>
      <trkpt lat="43.0695" lon="0.96965">
        <ele>305.8</ele>
        <time>2020-08-31T13:20:11Z</time>
      </trkpt>
      <trkpt lat="43.07026" lon="0.96867">
        <ele>305.5</ele>
        <time>2020-08-31T13:20:31Z</time>
      </trkpt>
      <trkpt lat="43.07102" lon="0.96766">
        <ele>304.9</ele>
        <time>2020-08-31T13:20:51Z</time>
      </trkpt>
      <trkpt lat="43.07176" lon="0.96674">
        <ele>304.4</ele>
        <time>2020-08-31T13:21:11Z</time>
      </trkpt>
      <trkpt lat="43.07245" lon="0.96583">
        <ele>303.8</ele>
        <time>2020-08-31T13:21:31Z</time>
      </trkpt>
      <trkpt lat="43.0732" lon="0.96483">
        <ele>303.5</ele>
        <time>2020-08-31T13:21:50Z</time>
      </trkpt>
      <trkpt lat="43.07394" lon="0.96389">
        <ele>303</ele>
        <time>2020-08-31T13:22:10Z</time>
      </trkpt>
      <trkpt lat="43.07449" lon="0.96262">
        <ele>302.7</ele>
        <time>2020-08-31T13:22:35Z</time>
      </trkpt>
      <trkpt lat="43.07516" lon="0.96179">
        <ele>302.4</ele>
        <time>2020-08-31T13:22:55Z</time>
      </trkpt>
      <trkpt lat="43.07594" lon="0.96081">
        <ele>301.9</ele>
        <time>2020-08-31T13:23:20Z</time>
      </trkpt>
      <trkpt lat="43.07668" lon="0.95987">
        <ele>301.6</ele>
        <time>2020-08-31T13:23:45Z</time>
      </trkpt>
      <trkpt lat="43.07753" lon="0.95915">
        <ele>300.7</ele>
        <time>2020-08-31T13:25:41Z</time>
      </trkpt>
      <trkpt lat="43.07793" lon="0.95801">
        <ele>299.8</ele>
        <time>2020-08-31T13:26:11Z</time>
      </trkpt>
      <trkpt lat="43.07862" lon="0.95721">
        <ele>299.8</ele>
        <time>2020-08-31T13:26:46Z</time>
      </trkpt>
      <trkpt lat="43.07915" lon="0.95611">
        <ele>299.8</ele>
        <time>2020-08-31T13:27:21Z</time>
      </trkpt>
      <trkpt lat="43.0796" lon="0.95464">
        <ele>300.1</ele>
        <time>2020-08-31T13:27:41Z</time>
      </trkpt>
      <trkpt lat="43.08038" lon="0.95361">
        <ele>299.7</ele>
        <time>2020-08-31T13:27:56Z</time>
      </trkpt>
      <trkpt lat="43.08118" lon="0.95268">
        <ele>299.6</ele>
        <time>2020-08-31T13:28:11Z</time>
      </trkpt>
      <trkpt lat="43.08187" lon="0.95182">
        <ele>300.3</ele>
        <time>2020-08-31T13:28:26Z</time>
      </trkpt>
      <trkpt lat="43.08275" lon="0.95148">
        <ele>298.8</ele>
        <time>2020-08-31T13:28:46Z</time>
      </trkpt>
      <trkpt lat="43.08308" lon="0.95025">
        <ele>299.2</ele>
        <time>2020-08-31T13:29:11Z</time>
      </trkpt>
      <trkpt lat="43.08347" lon="0.94911">
        <ele>300.7</ele>
        <time>2020-08-31T13:29:56Z</time>
      </trkpt>
      <trkpt lat="43.08391" lon="0.94788">
        <ele>302.3</ele>
        <time>2020-08-31T13:30:36Z</time>
      </trkpt>
      <trkpt lat="43.08421" lon="0.94661">
        <ele>304.4</ele>
        <time>2020-08-31T13:31:21Z</time>
      </trkpt>
      <trkpt lat="43.08423" lon="0.94525">
        <ele>309.3</ele>
        <time>2020-08-31T13:32:29Z</time>
      </trkpt>
      <trkpt lat="43.08434" lon="0.94397">
        <ele>314.5</ele>
        <time>2020-08-31T13:33:17Z</time>
      </trkpt>
      <trkpt lat="43.08425" lon="0.94264">
        <ele>319.6</ele>
        <time>2020-08-31T13:34:12Z</time>
      </trkpt>
      <trkpt lat="43.08379" lon="0.94147">
        <ele>323.2</ele>
        <time>2020-08-31T13:35:09Z</time>
      </trkpt>
      <trkpt lat="43.08355" lon="0.94022">
        <ele>326.7</ele>
        <time>2020-08-31T13:36:09Z</time>
      </trkpt>
      <trkpt lat="43.08408" lon="0.93911">
        <ele>331.3</ele>
        <time>2020-08-31T13:37:10Z</time>
      </trkpt>
      <trkpt lat="43.08479" lon="0.93818">
        <ele>336.1</ele>
        <time>2020-08-31T13:38:09Z</time>
      </trkpt>
      <trkpt lat="43.08539" lon="0.93726">
        <ele>340.3</ele>
        <time>2020-08-31T13:38:59Z</time>
      </trkpt>
      <trkpt lat="43.0859" lon="0.93614">
        <ele>343.5</ele>
        <time>2020-08-31T13:39:39Z</time>
      </trkpt>
      <trkpt lat="43.08637" lon="0.93503">
        <ele>346.3</ele>
        <time>2020-08-31T13:40:14Z</time>
      </trkpt>
      <trkpt lat="43.08662" lon="0.93378">
        <ele>349.3</ele>
        <time>2020-08-31T13:40:54Z</time>
      </trkpt>
      <trkpt lat="43.08697" lon="0.93252">
        <ele>353.6</ele>
        <time>2020-08-31T13:41:49Z</time>
      </trkpt>
      <trkpt lat="43.08739" lon="0.93133">
        <ele>360.2</ele>
        <time>2020-08-31T13:42:51Z</time>
      </trkpt>
      <trkpt lat="43.08781" lon="0.93021">
        <ele>369.1</ele>
        <time>2020-08-31T13:43:41Z</time>
      </trkpt>
      <trkpt lat="43.08812" lon="0.92897">
        <ele>379.4</ele>
        <time>2020-08-31T13:44:11Z</time>
      </trkpt>
      <trkpt lat="43.0881" lon="0.92749">
        <ele>382.6</ele>
        <time>2020-08-31T13:44:31Z</time>
      </trkpt>
      <trkpt lat="43.08799" lon="0.92624">
        <ele>383.6</ele>
        <time>2020-08-31T13:44:56Z</time>
      </trkpt>
      <trkpt lat="43.08786" lon="0.92501">
        <ele>385</ele>
        <time>2020-08-31T13:45:26Z</time>
      </trkpt>
      <trkpt lat="43.08763" lon="0.92374">
        <ele>389.2</ele>
        <time>2020-08-31T13:45:46Z</time>
      </trkpt>
      <trkpt lat="43.08724" lon="0.92229">
        <ele>390.5</ele>
        <time>2020-08-31T13:46:01Z</time>
      </trkpt>
      <trkpt lat="43.08686" lon="0.92108">
        <ele>392.4</ele>
        <time>2020-08-31T13:46:15Z</time>
      </trkpt>
      <trkpt lat="43.08646" lon="0.91989">
        <ele>394.5</ele>
        <time>2020-08-31T13:46:40Z</time>
      </trkpt>
      <trkpt lat="43.08616" lon="0.91867">
        <ele>398.8</ele>
        <time>2020-08-31T13:47:29Z</time>
      </trkpt>
      <trkpt lat="43.08553" lon="0.91743">
        <ele>405.6</ele>
        <time>2020-08-31T13:47:54Z</time>
      </trkpt>
      <trkpt lat="43.0849" lon="0.91639">
        <ele>407.1</ele>
        <time>2020-08-31T13:48:14Z</time>
      </trkpt>
      <trkpt lat="43.08487" lon="0.91501">
        <ele>408.1</ele>
        <time>2020-08-31T13:48:49Z</time>
      </trkpt>
      <trkpt lat="43.08533" lon="0.91386">
        <ele>409.6</ele>
        <time>2020-08-31T13:49:19Z</time>
      </trkpt>
      <trkpt lat="43.08583" lon="0.91273">
        <ele>412.7</ele>
        <time>2020-08-31T13:49:44Z</time>
      </trkpt>
      <trkpt lat="43.08649" lon="0.91188">
        <ele>414.1</ele>
        <time>2020-08-31T13:50:04Z</time>
      </trkpt>
      <trkpt lat="43.08682" lon="0.91048">
        <ele>414.3</ele>
        <time>2020-08-31T13:50:29Z</time>
      </trkpt>
      <trkpt lat="43.08682" lon="0.90891">
        <ele>413.6</ele>
        <time>2020-08-31T13:50:44Z</time>
      </trkpt>
      <trkpt lat="43.08652" lon="0.90753">
        <ele>412.3</ele>
        <time>2020-08-31T13:50:54Z</time>
      </trkpt>
      <trkpt lat="43.08632" lon="0.90602">
        <ele>412.1</ele>
        <time>2020-08-31T13:51:04Z</time>
      </trkpt>
      <trkpt lat="43.08618" lon="0.90467">
        <ele>410.6</ele>
        <time>2020-08-31T13:51:14Z</time>
      </trkpt>
      <trkpt lat="43.08621" lon="0.90331">
        <ele>409.5</ele>
        <time>2020-08-31T13:51:48Z</time>
      </trkpt>
      <trkpt lat="43.08579" lon="0.90198">
        <ele>408.3</ele>
        <time>2020-08-31T13:52:08Z</time>
      </trkpt>
      <trkpt lat="43.08541" lon="0.90085">
        <ele>407.5</ele>
        <time>2020-08-31T13:52:28Z</time>
      </trkpt>
      <trkpt lat="43.08507" lon="0.89943">
        <ele>405.9</ele>
        <time>2020-08-31T13:52:53Z</time>
      </trkpt>
      <trkpt lat="43.08468" lon="0.89819">
        <ele>403.2</ele>
        <time>2020-08-31T13:53:13Z</time>
      </trkpt>
      <trkpt lat="43.08427" lon="0.89703">
        <ele>402</ele>
        <time>2020-08-31T13:53:33Z</time>
      </trkpt>
      <trkpt lat="43.08347" lon="0.89637">
        <ele>401.8</ele>
        <time>2020-08-31T13:53:58Z</time>
      </trkpt>
      <trkpt lat="43.08253" lon="0.89597">
        <ele>402.3</ele>
        <time>2020-08-31T13:54:38Z</time>
      </trkpt>
      <trkpt lat="43.08152" lon="0.8957">
        <ele>403.1</ele>
        <time>2020-08-31T13:55:18Z</time>
      </trkpt>
      <trkpt lat="43.08056" lon="0.89561">
        <ele>403.7</ele>
        <time>2020-08-31T13:55:48Z</time>
      </trkpt>
      <trkpt lat="43.07974" lon="0.89482">
        <ele>405.2</ele>
        <time>2020-08-31T13:56:33Z</time>
      </trkpt>
      <trkpt lat="43.0793" lon="0.89354">
        <ele>408.4</ele>
        <time>2020-08-31T13:57:03Z</time>
      </trkpt>
      <trkpt lat="43.07885" lon="0.89207">
        <ele>408.8</ele>
        <time>2020-08-31T13:57:23Z</time>
      </trkpt>
      <trkpt lat="43.07832" lon="0.89106">
        <ele>410.3</ele>
        <time>2020-08-31T13:57:43Z</time>
      </trkpt>
      <trkpt lat="43.07775" lon="0.88998">
        <ele>410.9</ele>
        <time>2020-08-31T13:58:13Z</time>
      </trkpt>
      <trkpt lat="43.07706" lon="0.88908">
        <ele>412.6</ele>
        <time>2020-08-31T13:58:54Z</time>
      </trkpt>
      <trkpt lat="43.0763" lon="0.88826">
        <ele>413.7</ele>
        <time>2020-08-31T14:00:14Z</time>
      </trkpt>
      <trkpt lat="43.07564" lon="0.88707">
        <ele>414.8</ele>
        <time>2020-08-31T14:00:34Z</time>
      </trkpt>
      <trkpt lat="43.07523" lon="0.88583">
        <ele>416</ele>
        <time>2020-08-31T14:01:04Z</time>
      </trkpt>
      <trkpt lat="43.07522" lon="0.88449">
        <ele>419</ele>
        <time>2020-08-31T14:01:57Z</time>
      </trkpt>
      <trkpt lat="43.07539" lon="0.88323">
        <ele>420.7</ele>
        <time>2020-08-31T14:02:32Z</time>
      </trkpt>
      <trkpt lat="43.07541" lon="0.88192">
        <ele>422.2</ele>
        <time>2020-08-31T14:03:02Z</time>
      </trkpt>
      <trkpt lat="43.07547" lon="0.8806">
        <ele>424.4</ele>
        <time>2020-08-31T14:03:37Z</time>
      </trkpt>
      <trkpt lat="43.07485" lon="0.87931">
        <ele>425.2</ele>
        <time>2020-08-31T14:03:57Z</time>
      </trkpt>
      <trkpt lat="43.07391" lon="0.87833">
        <ele>424.7</ele>
        <time>2020-08-31T14:04:12Z</time>
      </trkpt>
      <trkpt lat="43.07362" lon="0.87685">
        <ele>425.6</ele>
        <time>2020-08-31T14:04:27Z</time>
      </trkpt>
      <trkpt lat="43.07397" lon="0.87536">
        <ele>426</ele>
        <time>2020-08-31T14:04:52Z</time>
      </trkpt>
      <trkpt lat="43.07481" lon="0.87411">
        <ele>422.1</ele>
        <time>2020-08-31T14:05:07Z</time>
      </trkpt>
      <trkpt lat="43.07561" lon="0.87277">
        <ele>419.5</ele>
        <time>2020-08-31T14:05:22Z</time>
      </trkpt>
      <trkpt lat="43.07609" lon="0.87155">
        <ele>415.9</ele>
        <time>2020-08-31T14:05:37Z</time>
      </trkpt>
      <trkpt lat="43.07644" lon="0.87011">
        <ele>413.7</ele>
        <time>2020-08-31T14:05:52Z</time>
      </trkpt>
      <trkpt lat="43.07676" lon="0.86895">
        <ele>411.8</ele>
        <time>2020-08-31T14:06:02Z</time>
      </trkpt>
      <trkpt lat="43.07748" lon="0.86813">
        <ele>409</ele>
        <time>2020-08-31T14:06:12Z</time>
      </trkpt>
      <trkpt lat="43.07865" lon="0.86763">
        <ele>404.2</ele>
        <time>2020-08-31T14:06:27Z</time>
      </trkpt>
      <trkpt lat="43.07951" lon="0.86712">
        <ele>401</ele>
        <time>2020-08-31T14:06:42Z</time>
      </trkpt>
      <trkpt lat="43.08028" lon="0.86597">
        <ele>396.4</ele>
        <time>2020-08-31T14:07:02Z</time>
      </trkpt>
      <trkpt lat="43.08077" lon="0.86491">
        <ele>394.7</ele>
        <time>2020-08-31T14:07:17Z</time>
      </trkpt>
      <trkpt lat="43.08124" lon="0.86379">
        <ele>391.9</ele>
        <time>2020-08-31T14:07:32Z</time>
      </trkpt>
      <trkpt lat="43.08134" lon="0.86252">
        <ele>389.5</ele>
        <time>2020-08-31T14:07:47Z</time>
      </trkpt>
      <trkpt lat="43.08158" lon="0.861">
        <ele>384.2</ele>
        <time>2020-08-31T14:08:07Z</time>
      </trkpt>
      <trkpt lat="43.08187" lon="0.85965">
        <ele>381.4</ele>
        <time>2020-08-31T14:08:27Z</time>
      </trkpt>
      <trkpt lat="43.08202" lon="0.85837">
        <ele>378.3</ele>
        <time>2020-08-31T14:08:47Z</time>
      </trkpt>
      <trkpt lat="43.08235" lon="0.8572">
        <ele>377.4</ele>
        <time>2020-08-31T14:09:12Z</time>
      </trkpt>
      <trkpt lat="43.08288" lon="0.8562">
        <ele>377</ele>
        <time>2020-08-31T14:09:59Z</time>
      </trkpt>
      <trkpt lat="43.08349" lon="0.85514">
        <ele>378.3</ele>
        <time>2020-08-31T14:10:50Z</time>
      </trkpt>
      <trkpt lat="43.08361" lon="0.8537">
        <ele>381.8</ele>
        <time>2020-08-31T14:11:44Z</time>
      </trkpt>
      <trkpt lat="43.08346" lon="0.85233">
        <ele>381.7</ele>
        <time>2020-08-31T14:11:59Z</time>
      </trkpt>
      <trkpt lat="43.08336" lon="0.85075">
        <ele>380.7</ele>
        <time>2020-08-31T14:12:14Z</time>
      </trkpt>
      <trkpt lat="43.08342" lon="0.84941">
        <ele>379.6</ele>
        <time>2020-08-31T14:12:29Z</time>
      </trkpt>
      <trkpt lat="43.08342" lon="0.84805">
        <ele>376.5</ele>
        <time>2020-08-31T14:12:44Z</time>
      </trkpt>
      <trkpt lat="43.08376" lon="0.84658">
        <ele>373.2</ele>
        <time>2020-08-31T14:13:04Z</time>
      </trkpt>
      <trkpt lat="43.08359" lon="0.84533">
        <ele>373.8</ele>
        <time>2020-08-31T14:13:43Z</time>
      </trkpt>
      <trkpt lat="43.08368" lon="0.84402">
        <ele>375</ele>
        <time>2020-08-31T14:14:35Z</time>
      </trkpt>
      <trkpt lat="43.08366" lon="0.84266">
        <ele>374.7</ele>
        <time>2020-08-31T14:15:10Z</time>
      </trkpt>
      <trkpt lat="43.08373" lon="0.8413">
        <ele>374.7</ele>
        <time>2020-08-31T14:15:45Z</time>
      </trkpt>
      <trkpt lat="43.08383" lon="0.83984">
        <ele>374.8</ele>
        <time>2020-08-31T14:16:15Z</time>
      </trkpt>
      <trkpt lat="43.08401" lon="0.83844">
        <ele>373.1</ele>
        <time>2020-08-31T14:16:35Z</time>
      </trkpt>
      <trkpt lat="43.08452" lon="0.83733">
        <ele>371.3</ele>
        <time>2020-08-31T14:16:50Z</time>
      </trkpt>
      <trkpt lat="43.08505" lon="0.83574">
        <ele>368.8</ele>
        <time>2020-08-31T14:17:05Z</time>
      </trkpt>
      <trkpt lat="43.0852" lon="0.83436">
        <ele>367.9</ele>
        <time>2020-08-31T14:17:20Z</time>
      </trkpt>
      <trkpt lat="43.08529" lon="0.83307">
        <ele>366.8</ele>
        <time>2020-08-31T14:17:50Z</time>
      </trkpt>
      <trkpt lat="43.08531" lon="0.83181">
        <ele>365.6</ele>
        <time>2020-08-31T14:18:25Z</time>
      </trkpt>
      <trkpt lat="43.08532" lon="0.8304">
        <ele>365.2</ele>
        <time>2020-08-31T14:19:00Z</time>
      </trkpt>
      <trkpt lat="43.08541" lon="0.82903">
        <ele>365.6</ele>
        <time>2020-08-31T14:19:30Z</time>
      </trkpt>
      <trkpt lat="43.08559" lon="0.82766">
        <ele>366.3</ele>
        <time>2020-08-31T14:20:00Z</time>
      </trkpt>
      <trkpt lat="43.08574" lon="0.82642">
        <ele>371.5</ele>
        <time>2020-08-31T14:25:19Z</time>
      </trkpt>
      <trkpt lat="43.08601" lon="0.82492">
        <ele>376.2</ele>
        <time>2020-08-31T14:25:49Z</time>
      </trkpt>
      <trkpt lat="43.08613" lon="0.82368">
        <ele>376.1</ele>
        <time>2020-08-31T14:26:04Z</time>
      </trkpt>
      <trkpt lat="43.08607" lon="0.82236">
        <ele>374.6</ele>
        <time>2020-08-31T14:26:14Z</time>
      </trkpt>
      <trkpt lat="43.08621" lon="0.82082">
        <ele>370.2</ele>
        <time>2020-08-31T14:26:24Z</time>
      </trkpt>
      <trkpt lat="43.08618" lon="0.81934">
        <ele>368</ele>
        <time>2020-08-31T14:26:56Z</time>
      </trkpt>
      <trkpt lat="43.08563" lon="0.81788">
        <ele>354.6</ele>
        <time>2020-08-31T14:27:16Z</time>
      </trkpt>
      <trkpt lat="43.08514" lon="0.81657">
        <ele>353.6</ele>
        <time>2020-08-31T14:27:36Z</time>
      </trkpt>
      <trkpt lat="43.08471" lon="0.8154">
        <ele>349</ele>
        <time>2020-08-31T14:27:56Z</time>
      </trkpt>
      <trkpt lat="43.0851" lon="0.81425">
        <ele>344.2</ele>
        <time>2020-08-31T14:28:26Z</time>
      </trkpt>
      <trkpt lat="43.08553" lon="0.81288">
        <ele>340.8</ele>
        <time>2020-08-31T14:28:46Z</time>
      </trkpt>
      <trkpt lat="43.08636" lon="0.81212">
        <ele>341</ele>
        <time>2020-08-31T14:29:21Z</time>
      </trkpt>
      <trkpt lat="43.08697" lon="0.81103">
        <ele>342.1</ele>
        <time>2020-08-31T14:30:05Z</time>
      </trkpt>
      <trkpt lat="43.08737" lon="0.80989">
        <ele>342.5</ele>
        <time>2020-08-31T14:30:30Z</time>
      </trkpt>
      <trkpt lat="43.08759" lon="0.80845">
        <ele>342.5</ele>
        <time>2020-08-31T14:31:00Z</time>
      </trkpt>
      <trkpt lat="43.08802" lon="0.8073">
        <ele>342.8</ele>
        <time>2020-08-31T14:31:25Z</time>
      </trkpt>
      <trkpt lat="43.08852" lon="0.80604">
        <ele>342.9</ele>
        <time>2020-08-31T14:31:55Z</time>
      </trkpt>
      <trkpt lat="43.08905" lon="0.80477">
        <ele>342.7</ele>
        <time>2020-08-31T14:32:25Z</time>
      </trkpt>
      <trkpt lat="43.08958" lon="0.80351">
        <ele>342.5</ele>
        <time>2020-08-31T14:32:55Z</time>
      </trkpt>
      <trkpt lat="43.09002" lon="0.80243">
        <ele>342.2</ele>
        <time>2020-08-31T14:33:20Z</time>
      </trkpt>
      <trkpt lat="43.09048" lon="0.8013">
        <ele>341.9</ele>
        <time>2020-08-31T14:33:45Z</time>
      </trkpt>
      <trkpt lat="43.09106" lon="0.80018">
        <ele>341.9</ele>
        <time>2020-08-31T14:34:10Z</time>
      </trkpt>
      <trkpt lat="43.09174" lon="0.79924">
        <ele>341.8</ele>
        <time>2020-08-31T14:34:35Z</time>
      </trkpt>
      <trkpt lat="43.09246" lon="0.79815">
        <ele>341.6</ele>
        <time>2020-08-31T14:35:00Z</time>
      </trkpt>
      <trkpt lat="43.09302" lon="0.79717">
        <ele>341.6</ele>
        <time>2020-08-31T14:35:19Z</time>
      </trkpt>
      <trkpt lat="43.09345" lon="0.79582">
        <ele>341.5</ele>
        <time>2020-08-31T14:35:44Z</time>
      </trkpt>
      <trkpt lat="43.09385" lon="0.79458">
        <ele>341.4</ele>
        <time>2020-08-31T14:36:09Z</time>
      </trkpt>
      <trkpt lat="43.09421" lon="0.79322">
        <ele>341.5</ele>
        <time>2020-08-31T14:36:34Z</time>
      </trkpt>
      <trkpt lat="43.09449" lon="0.79197">
        <ele>341.5</ele>
        <time>2020-08-31T14:36:54Z</time>
      </trkpt>
      <trkpt lat="43.09476" lon="0.79075">
        <ele>341.5</ele>
        <time>2020-08-31T14:37:14Z</time>
      </trkpt>
      <trkpt lat="43.09509" lon="0.78934">
        <ele>341.4</ele>
        <time>2020-08-31T14:37:39Z</time>
      </trkpt>
      <trkpt lat="43.09543" lon="0.78817">
        <ele>341.5</ele>
        <time>2020-08-31T14:38:04Z</time>
      </trkpt>
      <trkpt lat="43.09604" lon="0.78697">
        <ele>341.5</ele>
        <time>2020-08-31T14:38:34Z</time>
      </trkpt>
      <trkpt lat="43.09645" lon="0.78582">
        <ele>341.5</ele>
        <time>2020-08-31T14:38:59Z</time>
      </trkpt>
      <trkpt lat="43.09676" lon="0.78445">
        <ele>341.6</ele>
        <time>2020-08-31T14:39:24Z</time>
      </trkpt>
      <trkpt lat="43.09696" lon="0.78296">
        <ele>341.6</ele>
        <time>2020-08-31T14:39:49Z</time>
      </trkpt>
      <trkpt lat="43.09701" lon="0.78173">
        <ele>341.7</ele>
        <time>2020-08-31T14:40:09Z</time>
      </trkpt>
      <trkpt lat="43.09706" lon="0.78028">
        <ele>341.7</ele>
        <time>2020-08-31T14:40:34Z</time>
      </trkpt>
      <trkpt lat="43.09712" lon="0.7789">
        <ele>341.7</ele>
        <time>2020-08-31T14:40:59Z</time>
      </trkpt>
      <trkpt lat="43.09727" lon="0.77752">
        <ele>341.8</ele>
        <time>2020-08-31T14:41:24Z</time>
      </trkpt>
      <trkpt lat="43.09727" lon="0.77616">
        <ele>341.9</ele>
        <time>2020-08-31T14:41:49Z</time>
      </trkpt>
      <trkpt lat="43.09724" lon="0.77478">
        <ele>341.9</ele>
        <time>2020-08-31T14:42:14Z</time>
      </trkpt>
      <trkpt lat="43.09721" lon="0.77342">
        <ele>342</ele>
        <time>2020-08-31T14:42:39Z</time>
      </trkpt>
      <trkpt lat="43.09723" lon="0.772">
        <ele>342</ele>
        <time>2020-08-31T14:43:04Z</time>
      </trkpt>
      <trkpt lat="43.09728" lon="0.7707">
        <ele>342</ele>
        <time>2020-08-31T14:43:24Z</time>
      </trkpt>
      <trkpt lat="43.09733" lon="0.76917">
        <ele>341.9</ele>
        <time>2020-08-31T14:43:49Z</time>
      </trkpt>
      <trkpt lat="43.09738" lon="0.76767">
        <ele>341.9</ele>
        <time>2020-08-31T14:44:14Z</time>
      </trkpt>
      <trkpt lat="43.09744" lon="0.76622">
        <ele>341.9</ele>
        <time>2020-08-31T14:44:39Z</time>
      </trkpt>
      <trkpt lat="43.09749" lon="0.76471">
        <ele>341.9</ele>
        <time>2020-08-31T14:45:04Z</time>
      </trkpt>
      <trkpt lat="43.09753" lon="0.76327">
        <ele>341.9</ele>
        <time>2020-08-31T14:45:29Z</time>
      </trkpt>
      <trkpt lat="43.09744" lon="0.76188">
        <ele>342.1</ele>
        <time>2020-08-31T14:45:54Z</time>
      </trkpt>
      <trkpt lat="43.0972" lon="0.76054">
        <ele>342.2</ele>
        <time>2020-08-31T14:46:19Z</time>
      </trkpt>
      <trkpt lat="43.09691" lon="0.75923">
        <ele>342.3</ele>
        <time>2020-08-31T14:46:44Z</time>
      </trkpt>
      <trkpt lat="43.09664" lon="0.75786">
        <ele>342.6</ele>
        <time>2020-08-31T14:47:09Z</time>
      </trkpt>
      <trkpt lat="43.09649" lon="0.75648">
        <ele>343</ele>
        <time>2020-08-31T14:47:34Z</time>
      </trkpt>
      <trkpt lat="43.09634" lon="0.7551">
        <ele>343.4</ele>
        <time>2020-08-31T14:47:59Z</time>
      </trkpt>
      <trkpt lat="43.09618" lon="0.75371">
        <ele>343.7</ele>
        <time>2020-08-31T14:48:24Z</time>
      </trkpt>
      <trkpt lat="43.09603" lon="0.75226">
        <ele>344.1</ele>
        <time>2020-08-31T14:48:49Z</time>
      </trkpt>
      <trkpt lat="43.09594" lon="0.75094">
        <ele>344.8</ele>
        <time>2020-08-31T14:49:14Z</time>
      </trkpt>
      <trkpt lat="43.09572" lon="0.74965">
        <ele>345.5</ele>
        <time>2020-08-31T14:49:39Z</time>
      </trkpt>
      <trkpt lat="43.09524" lon="0.74849">
        <ele>346.6</ele>
        <time>2020-08-31T14:50:04Z</time>
      </trkpt>
      <trkpt lat="43.09461" lon="0.74734">
        <ele>347.2</ele>
        <time>2020-08-31T14:50:34Z</time>
      </trkpt>
      <trkpt lat="43.0942" lon="0.74601">
        <ele>348.4</ele>
        <time>2020-08-31T14:51:22Z</time>
      </trkpt>
      <trkpt lat="43.09371" lon="0.7446">
        <ele>348.9</ele>
        <time>2020-08-31T14:51:42Z</time>
      </trkpt>
      <trkpt lat="43.09321" lon="0.74336">
        <ele>349.3</ele>
        <time>2020-08-31T14:52:07Z</time>
      </trkpt>
      <trkpt lat="43.0929" lon="0.74219">
        <ele>349.6</ele>
        <time>2020-08-31T14:52:49Z</time>
      </trkpt>
      <trkpt lat="43.09247" lon="0.74096">
        <ele>351.1</ele>
        <time>2020-08-31T14:56:03Z</time>
      </trkpt>
      <trkpt lat="43.09188" lon="0.7399">
        <ele>351.8</ele>
        <time>2020-08-31T14:56:38Z</time>
      </trkpt>
      <trkpt lat="43.09134" lon="0.73881">
        <ele>353.4</ele>
        <time>2020-08-31T14:57:24Z</time>
      </trkpt>
      <trkpt lat="43.09097" lon="0.73745">
        <ele>353.6</ele>
        <time>2020-08-31T14:57:49Z</time>
      </trkpt>
      <trkpt lat="43.0908" lon="0.73604">
        <ele>353.7</ele>
        <time>2020-08-31T14:58:19Z</time>
      </trkpt>
      <trkpt lat="43.09057" lon="0.73471">
        <ele>354.4</ele>
        <time>2020-08-31T14:58:44Z</time>
      </trkpt>
      <trkpt lat="43.09004" lon="0.73364">
        <ele>354.7</ele>
        <time>2020-08-31T14:59:19Z</time>
      </trkpt>
      <trkpt lat="43.08956" lon="0.73259">
        <ele>355.1</ele>
        <time>2020-08-31T14:59:43Z</time>
      </trkpt>
      <trkpt lat="43.08969" lon="0.73122">
        <ele>355.7</ele>
        <time>2020-08-31T15:00:23Z</time>
      </trkpt>
      <trkpt lat="43.09001" lon="0.72993">
        <ele>356.2</ele>
        <time>2020-08-31T15:00:53Z</time>
      </trkpt>
      <trkpt lat="43.0904" lon="0.72876">
        <ele>357.2</ele>
        <time>2020-08-31T15:01:18Z</time>
      </trkpt>
      <trkpt lat="43.09076" lon="0.7276">
        <ele>357.6</ele>
        <time>2020-08-31T15:01:43Z</time>
      </trkpt>
      <trkpt lat="43.09098" lon="0.72614">
        <ele>357.9</ele>
        <time>2020-08-31T15:02:08Z</time>
      </trkpt>
      <trkpt lat="43.09123" lon="0.72492">
        <ele>358.3</ele>
        <time>2020-08-31T15:02:33Z</time>
      </trkpt>
      <trkpt lat="43.09163" lon="0.72371">
        <ele>358.5</ele>
        <time>2020-08-31T15:02:53Z</time>
      </trkpt>
      <trkpt lat="43.09176" lon="0.72224">
        <ele>358.6</ele>
        <time>2020-08-31T15:03:13Z</time>
      </trkpt>
      <trkpt lat="43.09195" lon="0.72093">
        <ele>358.7</ele>
        <time>2020-08-31T15:03:38Z</time>
      </trkpt>
      <trkpt lat="43.09206" lon="0.71943">
        <ele>358.9</ele>
        <time>2020-08-31T15:04:03Z</time>
      </trkpt>
      <trkpt lat="43.09217" lon="0.71806">
        <ele>359.3</ele>
        <time>2020-08-31T15:04:28Z</time>
      </trkpt>
      <trkpt lat="43.09238" lon="0.71677">
        <ele>359.5</ele>
        <time>2020-08-31T15:04:53Z</time>
      </trkpt>
      <trkpt lat="43.09306" lon="0.7159">
        <ele>359.4</ele>
        <time>2020-08-31T15:05:18Z</time>
      </trkpt>
      <trkpt lat="43.09334" lon="0.71466">
        <ele>359.6</ele>
        <time>2020-08-31T15:05:43Z</time>
      </trkpt>
      <trkpt lat="43.09363" lon="0.71327">
        <ele>359.7</ele>
        <time>2020-08-31T15:06:13Z</time>
      </trkpt>
      <trkpt lat="43.09384" lon="0.71196">
        <ele>360</ele>
        <time>2020-08-31T15:06:48Z</time>
      </trkpt>
      <trkpt lat="43.09403" lon="0.71073">
        <ele>360.3</ele>
        <time>2020-08-31T15:07:18Z</time>
      </trkpt>
      <trkpt lat="43.09425" lon="0.70941">
        <ele>360.7</ele>
        <time>2020-08-31T15:07:58Z</time>
      </trkpt>
      <trkpt lat="43.09467" lon="0.70819">
        <ele>361.6</ele>
        <time>2020-08-31T15:10:26Z</time>
      </trkpt>
      <trkpt lat="43.09498" lon="0.70703">
        <ele>362.4</ele>
        <time>2020-08-31T15:11:01Z</time>
      </trkpt>
      <trkpt lat="43.09453" lon="0.70587">
        <ele>363.8</ele>
        <time>2020-08-31T15:12:01Z</time>
      </trkpt>
      <trkpt lat="43.09459" lon="0.70444">
        <ele>364.3</ele>
        <time>2020-08-31T15:12:41Z</time>
      </trkpt>
      <trkpt lat="43.09451" lon="0.70309">
        <ele>365</ele>
        <time>2020-08-31T15:13:27Z</time>
      </trkpt>
    </trkseg>
  </trk>
</gpx>